Observation data for Boys Ranch on 10/20/2019      Previous  Date  Next       Current Mesonet Observations  Soil Data  Daily Summary Page  Observations in Plain Language
KBY1 200500Z 09003KT 12/03 A2981 RMK A01 T01180026  RH  053%=      5-min Rain = 0
KBY1 200501Z 10003KT 12/03 A2981 RMK A01 T01180026  RH  053%=      5-min Rain = 0
KBY1 200502Z 12004KT 12/03 A2981 RMK A01 T01180025  RH  053%=      5-min Rain = 0
KBY1 200503Z 12003KT 12/03 A2981 RMK A01 T01180026  RH  053%=      5-min Rain = 0
KBY1 200504Z 10004KT 12/03 A2981 RMK A01 T01170026  RH  053%=      5-min Rain = 0
KBY1 200505Z 09004KT 12/03 A298 RMK A01 T01190025  RH  053%=      5-min Rain = 0
KBY1 200506Z 12003KT 12/03 A298 RMK A01 T01230026  RH  052%=      5-min Rain = 0
KBY1 200507Z 10003KT 12/03 A298 RMK A01 T01230026  RH  052%=      5-min Rain = 0
KBY1 200508Z 09003KT 12/03 A298 RMK A01 T01230026  RH  052%=      5-min Rain = 0
KBY1 200509Z 09004KT 12/03 A298 RMK A01 T01210027  RH  052%=      5-min Rain = 0
KBY1 200510Z 10003KT 12/03 A298 RMK A01 T01190027  RH  053%=      5-min Rain = 0
KBY1 200511Z 11003KT 12/03 A298 RMK A01 T01170027  RH  054%=      5-min Rain = 0
KBY1 200512Z 10004KT 12/03 A298 RMK A01 T01150026  RH  055%=      5-min Rain = 0
KBY1 200513Z 10005KT 11/03 A298 RMK A01 T01140026  RH  055%=      5-min Rain = 0
KBY1 200514Z 10005KT 11/03 A298 RMK A01 T01130026  RH  055%=      5-min Rain = 0
KBY1 200515Z 10004KT 11/03 A298 RMK A01 T01130026  RH  055%=      5-min Rain = 0
KBY1 200516Z 10005KT 11/03 A298 RMK A01 T01120026  RH  055%=      5-min Rain = 0
KBY1 200517Z 10006KT 11/03 A298 RMK A01 T01090026  RH  057%=      5-min Rain = 0
KBY1 200518Z 08005KT 11/03 A298 RMK A01 T01060027  RH  058%=      5-min Rain = 0
KBY1 200519Z 10006KT 11/03 A298 RMK A01 T01060028  RH  058%=      5-min Rain = 0
KBY1 200520Z 09007KT 11/03 A298 RMK A01 T01050028  RH  059%=      5-min Rain = 0
KBY1 200521Z 09006KT 10/03 A298 RMK A01 T01040028  RH  059%=      5-min Rain = 0
KBY1 200522Z 09006KT 10/03 A298 RMK A01 T01040028  RH  059%=      5-min Rain = 0
KBY1 200523Z 10005KT 11/03 A298 RMK A01 T01050028  RH  059%=      5-min Rain = 0
KBY1 200524Z 10005KT 11/03 A298 RMK A01 T01050027  RH  059%=      5-min Rain = 0
KBY1 200525Z 10006KT 11/03 A298 RMK A01 T01070027  RH  058%=      5-min Rain = 0
KBY1 200526Z 10006KT 11/03 A298 RMK A01 T01080026  RH  057%=      5-min Rain = 0
KBY1 200527Z 10006KT 11/03 A298 RMK A01 T01090026  RH  057%=      5-min Rain = 0
KBY1 200528Z 11006KT 11/03 A298 RMK A01 T01110026  RH  056%=      5-min Rain = 0
KBY1 200529Z 10006KT 11/03 A298 RMK A01 T01120026  RH  055%=      5-min Rain = 0
KBY1 200530Z 10006KT 11/03 A298 RMK A01 T01130026  RH  055%=      5-min Rain = 0
KBY1 200531Z 09006KT 11/03 A298 RMK A01 T01130026  RH  055%=      5-min Rain = 0
KBY1 200532Z 10006KT 11/03 A298 RMK A01 T01120027  RH  056%=      5-min Rain = 0
KBY1 200533Z 10005KT 11/03 A298 RMK A01 T01120027  RH  056%=      5-min Rain = 0
KBY1 200534Z 11004KT 11/03 A298 RMK A01 T01130025  RH  055%=      5-min Rain = 0
KBY1 200535Z 11004KT 12/03 A298 RMK A01 T01160025  RH  054%=      5-min Rain = 0
KBY1 200536Z 12004KT 12/03 A298 RMK A01 T01170025  RH  053%=      5-min Rain = 0
KBY1 200537Z 10004KT 12/03 A2979 RMK A01 T01170025  RH  053%=      5-min Rain = 0
KBY1 200538Z 12004KT 12/02 A298 RMK A01 T01170024  RH  053%=      5-min Rain = 0
KBY1 200539Z 11005KT 12/02 A2979 RMK A01 T01170024  RH  053%=      5-min Rain = 0
KBY1 200540Z 11005KT 12/02 A2979 RMK A01 T01150024  RH  054%=      5-min Rain = 0
KBY1 200541Z 11006KT 11/02 A2979 RMK A01 T01130024  RH  054%=      5-min Rain = 0
KBY1 200542Z 11006KT 11/02 A2979 RMK A01 T01120024  RH  055%=      5-min Rain = 0
KBY1 200543Z 11006KT 11/03 A2979 RMK A01 T01100025  RH  056%=      5-min Rain = 0
KBY1 200544Z 11005KT 11/03 A2979 RMK A01 T01070025  RH  057%=      5-min Rain = 0
KBY1 200545Z 12005KT 11/03 A2979 RMK A01 T01050025  RH  058%=      5-min Rain = 0
KBY1 200546Z 11005KT 10/02 A2979 RMK A01 T01040024  RH  058%=      5-min Rain = 0
KBY1 200547Z 11005KT 11/02 A2979 RMK A01 T01050024  RH  057%=      5-min Rain = 0
KBY1 200548Z 11005KT 10/03 A2979 RMK A01 T01040026  RH  058%=      5-min Rain = 0
KBY1 200549Z 11004KT 10/03 A2979 RMK A01 T01030025  RH  059%=      5-min Rain = 0
KBY1 200550Z 10004KT 10/03 A2979 RMK A01 T01020025  RH  059%=      5-min Rain = 0
KBY1 200551Z 09004KT 10/02 A2979 RMK A01 T01010024  RH  059%=      5-min Rain = 0
KBY1 200552Z 10004KT 10/02 A2979 RMK A01 T01000024  RH  059%=      5-min Rain = 0
KBY1 200553Z 10005KT 10/02 A2979 RMK A01 T01000023  RH  059%=      5-min Rain = 0
KBY1 200554Z 10005KT 10/02 A2979 RMK A01 T01010023  RH  058%=      5-min Rain = 0
KBY1 200555Z 09004KT 10/02 A2979 RMK A01 T01020024  RH  058%=      5-min Rain = 0
KBY1 200556Z 08004KT 10/02 A2979 RMK A01 T01010024  RH  059%=      5-min Rain = 0
KBY1 200557Z 08004KT 10/02 A2979 RMK A01 T01010024  RH  059%=      5-min Rain = 0
KBY1 200558Z 08004KT 11/02 A2979 RMK A01 T01050024  RH  058%=      5-min Rain = 0
KBY1 200559Z 09003KT 11/03 A2979 RMK A01 T01060025  RH  057%=      5-min Rain = 0
KBY1 200600Z 09003KT 11/02 A2979 RMK A01 T01080024  RH  056%=      5-min Rain = 0
KBY1 200601Z 06002KT 11/02 A2979 RMK A01 T01110023  RH  055%=      5-min Rain = 0
KBY1 200602Z 04002KT 11/02 A2979 RMK A01 T01130023  RH  054%=      5-min Rain = 0
KBY1 200603Z 09003KT 11/02 A2978 RMK A01 T01140023  RH  054%=      5-min Rain = 0
KBY1 200604Z 09002KT 11/02 A2979 RMK A01 T01140024  RH  054%=      5-min Rain = 0
KBY1 200605Z 09002KT 11/02 A2978 RMK A01 T01140023  RH  054%=      5-min Rain = 0
KBY1 200606Z 07001KT 11/02 A2978 RMK A01 T01140022  RH  053%=      5-min Rain = 0
KBY1 200607Z 06001KT 11/02 A2978 RMK A01 T01140023  RH  053%=      5-min Rain = 0
KBY1 200608Z 06001KT 11/02 A2978 RMK A01 T01130023  RH  054%=      5-min Rain = 0
KBY1 200609Z 08001KT 11/02 A2978 RMK A01 T01140022  RH  053%=      5-min Rain = 0
KBY1 200610Z 09002KT 11/02 A2978 RMK A01 T01140022  RH  053%=      5-min Rain = 0
KBY1 200611Z 10002KT 11/02 A2978 RMK A01 T01140022  RH  053%=      5-min Rain = 0
KBY1 200612Z 08002KT 12/02 A2978 RMK A01 T01150022  RH  053%=      5-min Rain = 0
KBY1 200613Z 09002KT 12/02 A2978 RMK A01 T01150022  RH  053%=      5-min Rain = 0
KBY1 200614Z 10001KT 12/02 A2978 RMK A01 T01150022  RH  053%=      5-min Rain = 0
KBY1 200615Z 11003KT 12/02 A2978 RMK A01 T01150020  RH  052%=      5-min Rain = 0
KBY1 200616Z 09002KT 12/02 A2978 RMK A01 T01170020  RH  051%=      5-min Rain = 0
KBY1 200617Z 09002KT 12/02 A2978 RMK A01 T01190022  RH  051%=      5-min Rain = 0
KBY1 200618Z 11002KT 12/02 A2978 RMK A01 T01170022  RH  052%=      5-min Rain = 0
KBY1 200619Z 14002KT 11/02 A2978 RMK A01 T01140021  RH  053%=      5-min Rain = 0
KBY1 200620Z 13002KT 11/02 A2977 RMK A01 T01130021  RH  053%=      5-min Rain = 0
KBY1 200621Z 13002KT 11/02 A2977 RMK A01 T01130020  RH  053%=      5-min Rain = 0
KBY1 200622Z 20002KT 11/02 A2978 RMK A01 T01130021  RH  053%=      5-min Rain = 0
KBY1 200623Z 21002KT 11/02 A2977 RMK A01 T01080020  RH  054%=      5-min Rain = 0
KBY1 200624Z 22001KT 11/02 A2977 RMK A01 T01070020  RH  055%=      5-min Rain = 0
KBY1 200625Z 23001KT 11/02 A2978 RMK A01 T01050021  RH  056%=      5-min Rain = 0
KBY1 200626Z 19002KT 10/02 A2978 RMK A01 T01040020  RH  056%=      5-min Rain = 0
KBY1 200627Z 15002KT 11/02 A2978 RMK A01 T01050021  RH  056%=      5-min Rain = 0
KBY1 200628Z 14001KT 11/02 A2978 RMK A01 T01050021  RH  056%=      5-min Rain = 0
KBY1 200629Z 00000KT 11/02 A2978 RMK A01 T01060021  RH  056%=      5-min Rain = 0
KBY1 200630Z 16000KT 11/02 A2978 RMK A01 T01070021  RH  055%=      5-min Rain = 0
KBY1 200631Z 16001KT 11/02 A2978 RMK A01 T01080021  RH  055%=      5-min Rain = 0
KBY1 200632Z 12001KT 11/02 A2978 RMK A01 T01080023  RH  056%=      5-min Rain = 0
KBY1 200633Z 09002KT 11/02 A2977 RMK A01 T01080021  RH  055%=      5-min Rain = 0
KBY1 200634Z 10002KT 11/02 A2977 RMK A01 T01080022  RH  055%=      5-min Rain = 0
KBY1 200635Z 09000KT 10/02 A2977 RMK A01 T01040022  RH  057%=      5-min Rain = 0
KBY1 200636Z 11000KT 10/02 A2977 RMK A01 T01020021  RH  057%=      5-min Rain = 0
KBY1 200637Z 13001KT 10/02 A2977 RMK A01 T01030020  RH  057%=      5-min Rain = 0
KBY1 200638Z 08001KT 10/02 A2977 RMK A01 T01040020  RH  056%=      5-min Rain = 0
KBY1 200639Z 07002KT 11/02 A2977 RMK A01 T01060021  RH  056%=      5-min Rain = 0
KBY1 200640Z 06001KT 11/02 A2977 RMK A01 T01100021  RH  054%=      5-min Rain = 0
KBY1 200641Z 05003KT 11/02 A2977 RMK A01 T01130021  RH  053%=      5-min Rain = 0
KBY1 200642Z 01001KT 11/02 A2977 RMK A01 T01110023  RH  054%=      5-min Rain = 0
KBY1 200643Z 24000KT 10/02 A2977 RMK A01 T01030022  RH  057%=      5-min Rain = 0
KBY1 200644Z 00000KT 10/02 A2977 RMK A01 T00990020  RH  058%=      5-min Rain = 0
KBY1 200645Z 04001KT 10/02 A2977 RMK A01 T00980021  RH  059%=      5-min Rain = 0
KBY1 200646Z 04001KT 10/02 A2977 RMK A01 T00980022  RH  059%=      5-min Rain = 0
KBY1 200647Z 04000KT 10/02 A2977 RMK A01 T00980021  RH  059%=      5-min Rain = 0
KBY1 200648Z 06001KT 10/02 A2977 RMK A01 T00990022  RH  059%=      5-min Rain = 0
KBY1 200649Z 07002KT 10/02 A2977 RMK A01 T00980022  RH  059%=      5-min Rain = 0
KBY1 200650Z 08002KT 10/02 A2977 RMK A01 T00990023  RH  059%=      5-min Rain = 0
KBY1 200651Z 08002KT 10/03 A2977 RMK A01 T00980025  RH  061%=      5-min Rain = 0
KBY1 200652Z 08002KT 09/02 A2977 RMK A01 T00940024  RH  062%=      5-min Rain = 0
KBY1 200653Z 09001KT 09/02 A2977 RMK A01 T00920023  RH  062%=      5-min Rain = 0
KBY1 200654Z 03001KT 09/02 A2976 RMK A01 T00890022  RH  063%=      5-min Rain = 0
KBY1 200655Z 09000KT 09/02 A2977 RMK A01 T00880021  RH  063%=      5-min Rain = 0
KBY1 200656Z 00000KT 09/02 A2976 RMK A01 T00890022  RH  063%=      5-min Rain = 0
KBY1 200657Z 00000KT 09/02 A2976 RMK A01 T00880024  RH  064%=      5-min Rain = 0
KBY1 200658Z 00000KT 09/02 A2976 RMK A01 T00870023  RH  064%=      5-min Rain = 0
KBY1 200659Z 00000KT 09/02 A2976 RMK A01 T00860022  RH  064%=      5-min Rain = 0
KBY1 200700Z 21000KT 09/02 A2976 RMK A01 T00870022  RH  064%=      5-min Rain = 0
KBY1 200701Z 12001KT 09/02 A2976 RMK A01 T00880022  RH  063%=      5-min Rain = 0
KBY1 200702Z 08000KT 09/02 A2976 RMK A01 T00900023  RH  063%=      5-min Rain = 0
KBY1 200703Z 02000KT 09/02 A2976 RMK A01 T00900022  RH  063%=      5-min Rain = 0
KBY1 200704Z 05001KT 10/02 A2976 RMK A01 T00950023  RH  061%=      5-min Rain = 0
KBY1 200705Z 04000KT 10/02 A2977 RMK A01 T01000023  RH  059%=      5-min Rain = 0
KBY1 200706Z 03000KT 10/02 A2976 RMK A01 T01030022  RH  057%=      5-min Rain = 0
KBY1 200707Z 06001KT 11/02 A2976 RMK A01 T01060022  RH  056%=      5-min Rain = 0
KBY1 200708Z 05001KT 11/02 A2976 RMK A01 T01090021  RH  054%=      5-min Rain = 0
KBY1 200709Z 08001KT 11/02 A2977 RMK A01 T01120022  RH  054%=      5-min Rain = 0
KBY1 200710Z 13002KT 11/02 A2977 RMK A01 T01120021  RH  053%=      5-min Rain = 0
KBY1 200711Z 13002KT 11/02 A2977 RMK A01 T01120021  RH  053%=      5-min Rain = 0
KBY1 200712Z 11002KT 11/02 A2977 RMK A01 T01100022  RH  054%=      5-min Rain = 0
KBY1 200713Z 11001KT 11/02 A2977 RMK A01 T01100021  RH  054%=      5-min Rain = 0
KBY1 200714Z 16003KT 11/02 A2977 RMK A01 T01110020  RH  054%=      5-min Rain = 0
KBY1 200715Z 16002KT 11/02 A2977 RMK A01 T01130020  RH  053%=      5-min Rain = 0
KBY1 200716Z 16000KT 12/02 A2976 RMK A01 T01160019  RH  051%=      5-min Rain = 0
KBY1 200717Z 17001KT 12/02 A2977 RMK A01 T01170020  RH  052%=      5-min Rain = 0
KBY1 200718Z 17000KT 12/02 A2976 RMK A01 T01160020  RH  052%=      5-min Rain = 0
KBY1 200719Z 17001KT 12/02 A2976 RMK A01 T01150020  RH  052%=      5-min Rain = 0
KBY1 200720Z 18001KT 11/02 A2976 RMK A01 T01140020  RH  053%=      5-min Rain = 0
KBY1 200721Z 20001KT 11/02 A2976 RMK A01 T01120020  RH  053%=      5-min Rain = 0
KBY1 200722Z 20002KT 11/02 A2976 RMK A01 T01100020  RH  054%=      5-min Rain = 0
KBY1 200723Z 19002KT 11/02 A2976 RMK A01 T01090019  RH  054%=      5-min Rain = 0
KBY1 200724Z 17001KT 11/02 A2976 RMK A01 T01090020  RH  054%=      5-min Rain = 0
KBY1 200725Z 16001KT 11/02 A2976 RMK A01 T01090019  RH  054%=      5-min Rain = 0
KBY1 200726Z 18001KT 11/02 A2976 RMK A01 T01100020  RH  054%=      5-min Rain = 0
KBY1 200727Z 18002KT 11/02 A2976 RMK A01 T01090021  RH  055%=      5-min Rain = 0
KBY1 200728Z 16002KT 11/02 A2976 RMK A01 T01070020  RH  055%=      5-min Rain = 0
KBY1 200729Z 16002KT 11/02 A2976 RMK A01 T01070020  RH  055%=      5-min Rain = 0
KBY1 200730Z 17002KT 11/02 A2976 RMK A01 T01060020  RH  055%=      5-min Rain = 0
KBY1 200731Z 17002KT 11/02 A2976 RMK A01 T01060021  RH  056%=      5-min Rain = 0
KBY1 200732Z 19002KT 11/02 A2976 RMK A01 T01050020  RH  056%=      5-min Rain = 0
KBY1 200733Z 18002KT 10/02 A2976 RMK A01 T01040020  RH  056%=      5-min Rain = 0
KBY1 200734Z 19002KT 10/02 A2976 RMK A01 T01040021  RH  056%=      5-min Rain = 0
KBY1 200735Z 19002KT 10/02 A2976 RMK A01 T01030021  RH  057%=      5-min Rain = 0
KBY1 200736Z 19004KT 10/02 A2976 RMK A01 T01020020  RH  057%=      5-min Rain = 0
KBY1 200737Z 17002KT 10/02 A2976 RMK A01 T01020021  RH  057%=      5-min Rain = 0
KBY1 200738Z 19002KT 10/02 A2976 RMK A01 T01020020  RH  057%=      5-min Rain = 0
KBY1 200739Z 19003KT 10/02 A2976 RMK A01 T01020019  RH  056%=      5-min Rain = 0
KBY1 200740Z 18003KT 10/02 A2976 RMK A01 T01040019  RH  056%=      5-min Rain = 0
KBY1 200741Z 18003KT 11/02 A2976 RMK A01 T01060019  RH  055%=      5-min Rain = 0
KBY1 200742Z 19003KT 11/02 A2976 RMK A01 T01070019  RH  055%=      5-min Rain = 0
KBY1 200743Z 19003KT 11/02 A2976 RMK A01 T01070018  RH  054%=      5-min Rain = 0
KBY1 200744Z 20003KT 11/02 A2976 RMK A01 T01070019  RH  054%=      5-min Rain = 0
KBY1 200745Z 20003KT 11/02 A2976 RMK A01 T01070019  RH  054%=      5-min Rain = 0
KBY1 200746Z 19004KT 11/02 A2976 RMK A01 T01070019  RH  055%=      5-min Rain = 0
KBY1 200747Z 18004KT 11/02 A2976 RMK A01 T01090019  RH  054%=      5-min Rain = 0
KBY1 200748Z 18005KT 11/02 A2976 RMK A01 T01110020  RH  054%=      5-min Rain = 0
KBY1 200749Z 18005KT 11/02 A2976 RMK A01 T01110020  RH  054%=      5-min Rain = 0
KBY1 200750Z 17004KT 11/02 A2976 RMK A01 T01110022  RH  054%=      5-min Rain = 0
KBY1 200751Z 16004KT 11/02 A2976 RMK A01 T01110023  RH  055%=      5-min Rain = 0
KBY1 200752Z 17003KT 11/02 A2976 RMK A01 T01110023  RH  055%=      5-min Rain = 0
KBY1 200753Z 17003KT 11/02 A2975 RMK A01 T01100023  RH  055%=      5-min Rain = 0
KBY1 200754Z 16004KT 11/02 A2975 RMK A01 T01090022  RH  055%=      5-min Rain = 0
KBY1 200755Z 17004KT 11/02 A2975 RMK A01 T01090022  RH  055%=      5-min Rain = 0
KBY1 200756Z 17004KT 11/02 A2975 RMK A01 T01100021  RH  054%=      5-min Rain = 0
KBY1 200757Z 19004KT 11/02 A2975 RMK A01 T01110021  RH  054%=      5-min Rain = 0
KBY1 200758Z 18005KT 11/02 A2975 RMK A01 T01120021  RH  054%=      5-min Rain = 0
KBY1 200759Z 19005KT 11/02 A2975 RMK A01 T01120021  RH  053%=      5-min Rain = 0
KBY1 200800Z 19005KT 12/02 A2975 RMK A01 T01150021  RH  053%=      5-min Rain = 0
KBY1 200801Z 18006KT 12/02 A2975 RMK A01 T01180021  RH  051%=      5-min Rain = 0
KBY1 200802Z 18006KT 12/02 A2975 RMK A01 T01220021  RH  050%=      5-min Rain = 0
KBY1 200803Z 19007KT 13/02 A2975 RMK A01 T01250020  RH  049%=      5-min Rain = 0
KBY1 200804Z 19006KT 13/02 A2975 RMK A01 T01270020  RH  048%=      5-min Rain = 0
KBY1 200805Z 19005KT 13/02 A2975 RMK A01 T01290020  RH  047%=      5-min Rain = 0
KBY1 200806Z 18006KT 13/02 A2975 RMK A01 T01290019  RH  047%=      5-min Rain = 0
KBY1 200807Z 18006KT 13/02 A2975 RMK A01 T01300019  RH  047%=      5-min Rain = 0
KBY1 200808Z 18008KT 13/02 A2975 RMK A01 T01300019  RH  047%=      5-min Rain = 0
KBY1 200809Z 19007KT 13/02 A2975 RMK A01 T01300018  RH  046%=      5-min Rain = 0
KBY1 200810Z 17007KT 13/02 A2975 RMK A01 T01310017  RH  046%=      5-min Rain = 0
KBY1 200811Z 18007KT 13/02 A2975 RMK A01 T01330017  RH  045%=      5-min Rain = 0
KBY1 200812Z 18007KT 13/02 A2975 RMK A01 T01340017  RH  045%=      5-min Rain = 0
KBY1 200813Z 18007KT 13/02 A2975 RMK A01 T01340017  RH  045%=      5-min Rain = 0
KBY1 200814Z 19008KT 13/02 A2975 RMK A01 T01330016  RH  045%=      5-min Rain = 0
KBY1 200815Z 19011KT 13/02 A2975 RMK A01 T01340015  RH  044%=      5-min Rain = 0
KBY1 200816Z 18009KT 14/01 A2975 RMK A01 T01360014  RH  043%=      5-min Rain = 0
KBY1 200817Z 18007G12KT 14/02 A2975 RMK A01 T01370015  RH  043%=      5-min Rain = 0
KBY1 200818Z 18009KT 14/02 A2975 RMK A01 T01370015  RH  044%=      5-min Rain = 0
KBY1 200819Z 18008KT 14/02 A2975 RMK A01 T01370015  RH  043%=      5-min Rain = 0
KBY1 200820Z 19009KT 14/01 A2975 RMK A01 T01370014  RH  043%=      5-min Rain = 0
KBY1 200821Z 19009KT 14/01 A2975 RMK A01 T01370013  RH  043%=      5-min Rain = 0
KBY1 200822Z 18006KT 14/01 A2975 RMK A01 T01380014  RH  043%=      5-min Rain = 0
KBY1 200823Z 18008KT 14/01 A2975 RMK A01 T01370014  RH  043%=      5-min Rain = 0
KBY1 200824Z 18008KT 14/01 A2974 RMK A01 T01370013  RH  043%=      5-min Rain = 0
KBY1 200825Z 18009KT 14/01 A2974 RMK A01 T01370012  RH  043%=      5-min Rain = 0
KBY1 200826Z 18009KT 14/01 A2974 RMK A01 T01380012  RH  042%=      5-min Rain = 0
KBY1 200827Z 18010KT 14/01 A2974 RMK A01 T01390011  RH  042%=      5-min Rain = 0
KBY1 200828Z 18010KT 14/01 A2974 RMK A01 T01390011  RH  042%=      5-min Rain = 0
KBY1 200829Z 18008KT 14/01 A2974 RMK A01 T01400012  RH  042%=      5-min Rain = 0
KBY1 200830Z 18009KT 14/01 A2974 RMK A01 T01390012  RH  042%=      5-min Rain = 0
KBY1 200831Z 18009KT 14/01 A2974 RMK A01 T01390010  RH  042%=      5-min Rain = 0
KBY1 200832Z 19009KT 14/01 A2974 RMK A01 T01400011  RH  042%=      5-min Rain = 0
KBY1 200833Z 19007KT 14/01 A2974 RMK A01 T01400010  RH  041%=      5-min Rain = 0
KBY1 200834Z 18007KT 14/01 A2974 RMK A01 T01400010  RH  041%=      5-min Rain = 0
KBY1 200835Z 19006KT 14/01 A2974 RMK A01 T01390010  RH  041%=      5-min Rain = 0
KBY1 200836Z 20005KT 14/01 A2974 RMK A01 T01380010  RH  042%=      5-min Rain = 0
KBY1 200837Z 19008KT 14/01 A2973 RMK A01 T01380010  RH  042%=      5-min Rain = 0
KBY1 200838Z 19009KT 14/01 A2973 RMK A01 T01370009  RH  042%=      5-min Rain = 0
KBY1 200839Z 19007KT 14/01 A2973 RMK A01 T01390009  RH  041%=      5-min Rain = 0
KBY1 200840Z 19007KT 14/01 A2973 RMK A01 T01400008  RH  041%=      5-min Rain = 0
KBY1 200841Z 20009KT 14/01 A2973 RMK A01 T01410009  RH  041%=      5-min Rain = 0
KBY1 200842Z 20009KT 14/01 A2973 RMK A01 T01410008  RH  040%=      5-min Rain = 0
KBY1 200843Z 19009KT 14/01 A2973 RMK A01 T01420008  RH  040%=      5-min Rain = 0
KBY1 200844Z 20009KT 14/01 A2973 RMK A01 T01440008  RH  039%=      5-min Rain = 0
KBY1 200845Z 20010KT 15/01 A2973 RMK A01 T01450007  RH  039%=      5-min Rain = 0
KBY1 200846Z 20012KT 15/01 A2973 RMK A01 T01460007  RH  039%=      5-min Rain = 0
KBY1 200847Z 20014G20KT 15/01 A2973 RMK A01 T01480006  RH  038%=      5-min Rain = 0
KBY1 200848Z 19011KT 15/01 A2973 RMK A01 T01500005  RH  037%=      5-min Rain = 0
KBY1 200849Z 19013KT 15/01 A2973 RMK A01 T01510005  RH  037%=      5-min Rain = 0
KBY1 200850Z 20009KT 15/01 A2973 RMK A01 T01510005  RH  037%=      5-min Rain = 0
KBY1 200851Z 20009G14KT 15/01 A2973 RMK A01 T01500006  RH  037%=      5-min Rain = 0
KBY1 200852Z 20014KT 15/00 A2972 RMK A01 T01490004  RH  037%=      5-min Rain = 0
KBY1 200853Z 20014G19KT 15/00 A2972 RMK A01 T01510003  RH  036%=      5-min Rain = 0
KBY1 200854Z 20011KT 15/00 A2972 RMK A01 T01530004  RH  036%=      5-min Rain = 0
KBY1 200855Z 20011KT 15/00 A2972 RMK A01 T01530004  RH  036%=      5-min Rain = 0
KBY1 200856Z 20012G17KT 15/00 A2972 RMK A01 T01520004  RH  036%=      5-min Rain = 0
KBY1 200857Z 20016G21KT 15/00 A2972 RMK A01 T01530004  RH  036%=      5-min Rain = 0
KBY1 200858Z 20013G19KT 15/00 A2972 RMK A01 T01530003  RH  036%=      5-min Rain = 0
KBY1 200859Z 20013G18KT 15/00 A2972 RMK A01 T01540003  RH  036%=      5-min Rain = 0
KBY1 200900Z 20014KT 15/00 A2972 RMK A01 T01540003  RH  036%=      5-min Rain = 0
KBY1 200901Z 20012G20KT 15/00 A2972 RMK A01 T01540003  RH  036%=      5-min Rain = 0
KBY1 200902Z 20015KT 16/00 A2972 RMK A01 T01550002  RH  035%=      5-min Rain = 0
KBY1 200903Z 19014KT 16/00 A2972 RMK A01 T01550002  RH  035%=      5-min Rain = 0
KBY1 200904Z 20015KT 16/00 A2972 RMK A01 T01550002  RH  035%=      5-min Rain = 0
KBY1 200905Z 20013KT 16/00 A2972 RMK A01 T01550002  RH  035%=      5-min Rain = 0
KBY1 200906Z 20015KT 16/00 A2972 RMK A01 T01550002  RH  035%=      5-min Rain = 0
KBY1 200907Z 20015KT 16/00 A2972 RMK A01 T01560001  RH  035%=      5-min Rain = 0
KBY1 200908Z 20014KT 16/00 A2972 RMK A01 T01560001  RH  035%=      5-min Rain = 0
KBY1 200909Z 21013KT 16/00 A2972 RMK A01 T01560002  RH  035%=      5-min Rain = 0
KBY1 200910Z 20013KT 16/00 A2971 RMK A01 T01560002  RH  035%=      5-min Rain = 0
KBY1 200911Z 20012KT 16/00 A2971 RMK A01 T01550001  RH  035%=      5-min Rain = 0
KBY1 200912Z 20012KT 16/00 A2971 RMK A01 T01550002  RH  035%=      5-min Rain = 0
KBY1 200913Z 20012KT 15/00 A2971 RMK A01 T01540001  RH  035%=      5-min Rain = 0
KBY1 200914Z 20015KT 15/00 A2971 RMK A01 T01540000  RH  035%=      5-min Rain = 0
KBY1 200915Z 21012G17KT 16/00 A2971 RMK A01 T01560000  RH  035%=      5-min Rain = 0
KBY1 200916Z 21011KT 16/00 A2972 RMK A01 T01560001  RH  035%=      5-min Rain = 0
KBY1 200917Z 20013KT 16/00 A2972 RMK A01 T01550001  RH  035%=      5-min Rain = 0
KBY1 200918Z 20011G16KT 15/00 A2972 RMK A01 T01540001  RH  035%=      5-min Rain = 0
KBY1 200919Z 20015G22KT 15/00 A2971 RMK A01 T01530000  RH  035%=      5-min Rain = 0
KBY1 200920Z 20014G19KT 15/00 A2971 RMK A01 T015400-0  RH  035%=      5-min Rain = 0
KBY1 200921Z 20015KT 16/00 A2971 RMK A01 T015500-0  RH  035%=      5-min Rain = 0
KBY1 200922Z 20014KT 16/00 A2971 RMK A01 T015500-0  RH  035%=      5-min Rain = 0
KBY1 200923Z 20015KT 16/00 A2971 RMK A01 T015500-0  RH  035%=      5-min Rain = 0
KBY1 200924Z 20014KT 16/M00 A2971 RMK A01 T01551001  RH  035%=      5-min Rain = 0
KBY1 200925Z 20010G15KT 15/00 A2971 RMK A01 T015400-0  RH  035%=      5-min Rain = 0
KBY1 200926Z 20012KT 15/00 A2971 RMK A01 T015300-0  RH  035%=      5-min Rain = 0
KBY1 200927Z 20012KT 15/00 A2971 RMK A01 T015300-0  RH  035%=      5-min Rain = 0
KBY1 200928Z 20014KT 15/M00 A2971 RMK A01 T01531001  RH  035%=      5-min Rain = 0
KBY1 200929Z 20013KT 15/M00 A2971 RMK A01 T01521001  RH  035%=      5-min Rain = 0
KBY1 200930Z 20012KT 15/00 A2971 RMK A01 T015300-0  RH  035%=      5-min Rain = 0
KBY1 200931Z 20016KT 15/M00 A2971 RMK A01 T01531001  RH  035%=      5-min Rain = 0
KBY1 200932Z 20012KT 15/M00 A2971 RMK A01 T01521001  RH  035%=      5-min Rain = 0
KBY1 200933Z 20012G19KT 15/M00 A2971 RMK A01 T01531001  RH  035%=      5-min Rain = 0
KBY1 200934Z 20012KT 15/M00 A2971 RMK A01 T01531001  RH  035%=      5-min Rain = 0
KBY1 200935Z 20013KT 15/00 A2971 RMK A01 T015200-0  RH  035%=      5-min Rain = 0
KBY1 200936Z 21012G17KT 15/M00 A2971 RMK A01 T01511001  RH  035%=      5-min Rain = 0
KBY1 200937Z 20013KT 15/00 A2971 RMK A01 T015100-0  RH  036%=      5-min Rain = 0
KBY1 200938Z 21012G18KT 15/M00 A2971 RMK A01 T01501001  RH  036%=      5-min Rain = 0
KBY1 200939Z 21012G19KT 15/M00 A2971 RMK A01 T01501001  RH  036%=      5-min Rain = 0
KBY1 200940Z 21010KT 15/00 A2971 RMK A01 T015000-0  RH  036%=      5-min Rain = 0
KBY1 200941Z 21014KT 15/00 A2971 RMK A01 T014900-0  RH  036%=      5-min Rain = 0
KBY1 200942Z 21011G16KT 15/00 A2971 RMK A01 T014900-0  RH  036%=      5-min Rain = 0
KBY1 200943Z 20018KT 15/00 A297 RMK A01 T015000-0  RH  036%=      5-min Rain = 0
KBY1 200944Z 21016KT 15/M00 A297 RMK A01 T01501001  RH  036%=      5-min Rain = 0
KBY1 200945Z 21013KT 15/00 A2971 RMK A01 T015100-0  RH  036%=      5-min Rain = 0
KBY1 200946Z 21015G20KT 15/00 A2971 RMK A01 T015100-0  RH  036%=      5-min Rain = 0
KBY1 200947Z 22014KT 15/00 A2971 RMK A01 T015000-0  RH  036%=      5-min Rain = 0
KBY1 200948Z 21013G20KT 15/00 A2971 RMK A01 T01510000  RH  036%=      5-min Rain = 0
KBY1 200949Z 21013KT 15/00 A2971 RMK A01 T015000-0  RH  036%=      5-min Rain = 0
KBY1 200950Z 21014G19KT 15/00 A297 RMK A01 T01500000  RH  036%=      5-min Rain = 0
KBY1 200951Z 22011KT 15/00 A2971 RMK A01 T01500000  RH  036%=      5-min Rain = 0
KBY1 200952Z 21015G21KT 15/00 A2971 RMK A01 T01490000  RH  036%=      5-min Rain = 0
KBY1 200953Z 21013KT 15/00 A297 RMK A01 T01490001  RH  036%=      5-min Rain = 0
KBY1 200954Z 21011KT 15/00 A2971 RMK A01 T01480001  RH  036%=      5-min Rain = 0
KBY1 200955Z 21014KT 15/00 A2971 RMK A01 T01480001  RH  036%=      5-min Rain = 0
KBY1 200956Z 22009G14KT 15/00 A2971 RMK A01 T01480001  RH  036%=      5-min Rain = 0
KBY1 200957Z 22009KT 15/00 A2971 RMK A01 T01480001  RH  037%=      5-min Rain = 0
KBY1 200958Z 22008KT 15/00 A2971 RMK A01 T01470000  RH  037%=      5-min Rain = 0
KBY1 200959Z 23009KT 15/00 A2971 RMK A01 T01470001  RH  037%=      5-min Rain = 0
KBY1 201000Z 24006KT 15/00 A2971 RMK A01 T01460000  RH  037%=      5-min Rain = 0
KBY1 201001Z 25008KT 15/00 A2971 RMK A01 T01460001  RH  037%=      5-min Rain = 0
KBY1 201002Z 24008G13KT 15/00 A2971 RMK A01 T01460001  RH  037%=      5-min Rain = 0
KBY1 201003Z 25008KT 15/00 A2971 RMK A01 T01450001  RH  037%=      5-min Rain = 0
KBY1 201004Z 25006KT 15/00 A2971 RMK A01 T01450001  RH  037%=      5-min Rain = 0
KBY1 201005Z 25006KT 15/00 A2971 RMK A01 T01450001  RH  037%=      5-min Rain = 0
KBY1 201006Z 25008KT 14/00 A2971 RMK A01 T01440001  RH  037%=      5-min Rain = 0
KBY1 201007Z 25009KT 15/00 A2971 RMK A01 T01450001  RH  037%=      5-min Rain = 0
KBY1 201008Z 26009KT 15/00 A2971 RMK A01 T01450001  RH  037%=      5-min Rain = 0
KBY1 201009Z 28007KT 15/00 A2971 RMK A01 T01450000  RH  037%=      5-min Rain = 0
KBY1 201010Z 28005KT 15/00 A2971 RMK A01 T01450000  RH  037%=      5-min Rain = 0
KBY1 201011Z 26005KT 14/00 A2971 RMK A01 T01440001  RH  037%=      5-min Rain = 0
KBY1 201012Z 26006KT 14/00 A2971 RMK A01 T014300-0  RH  037%=      5-min Rain = 0
KBY1 201013Z 26006KT 14/00 A2971 RMK A01 T01440000  RH  037%=      5-min Rain = 0
KBY1 201014Z 28004KT 14/00 A2971 RMK A01 T01430001  RH  038%=      5-min Rain = 0
KBY1 201015Z 28004KT 14/00 A2971 RMK A01 T01420000  RH  038%=      5-min Rain = 0
KBY1 201016Z 28004KT 14/00 A2971 RMK A01 T01410000  RH  038%=      5-min Rain = 0
KBY1 201017Z 28004KT 14/00 A2971 RMK A01 T01400000  RH  038%=      5-min Rain = 0
KBY1 201018Z 27004KT 14/00 A2971 RMK A01 T01390000  RH  038%=      5-min Rain = 0
KBY1 201019Z 27005KT 14/00 A2971 RMK A01 T01390001  RH  039%=      5-min Rain = 0
KBY1 201020Z 29003KT 14/00 A2971 RMK A01 T01370001  RH  039%=      5-min Rain = 0
KBY1 201021Z 27005KT 14/00 A2971 RMK A01 T01360001  RH  039%=      5-min Rain = 0
KBY1 201022Z 28004KT 14/00 A2971 RMK A01 T01360000  RH  039%=      5-min Rain = 0
KBY1 201023Z 28003KT 14/00 A2971 RMK A01 T01370001  RH  039%=      5-min Rain = 0
KBY1 201024Z 28004KT 14/00 A2971 RMK A01 T01360001  RH  040%=      5-min Rain = 0
KBY1 201025Z 28005KT 14/00 A2971 RMK A01 T01350001  RH  040%=      5-min Rain = 0
KBY1 201026Z 29005KT 14/00 A2972 RMK A01 T01350001  RH  040%=      5-min Rain = 0
KBY1 201027Z 29005KT 14/00 A2972 RMK A01 T01350001  RH  040%=      5-min Rain = 0
KBY1 201028Z 29004KT 13/00 A2972 RMK A01 T01340001  RH  040%=      5-min Rain = 0
KBY1 201029Z 30005KT 13/00 A2971 RMK A01 T01330001  RH  040%=      5-min Rain = 0
KBY1 201030Z 30005KT 13/00 A2971 RMK A01 T01330000  RH  040%=      5-min Rain = 0
KBY1 201031Z 30005KT 13/00 A2971 RMK A01 T01340001  RH  040%=      5-min Rain = 0
KBY1 201032Z 29006KT 13/00 A2971 RMK A01 T01340000  RH  040%=      5-min Rain = 0
KBY1 201033Z 26004KT 14/00 A2972 RMK A01 T01360001  RH  039%=      5-min Rain = 0
KBY1 201034Z 28004KT 14/00 A2972 RMK A01 T01370001  RH  039%=      5-min Rain = 0
KBY1 201035Z 27007KT 14/00 A2972 RMK A01 T01370001  RH  039%=      5-min Rain = 0
KBY1 201036Z 28006KT 14/00 A2972 RMK A01 T01370001  RH  039%=      5-min Rain = 0
KBY1 201037Z 28005KT 14/00 A2972 RMK A01 T01370000  RH  039%=      5-min Rain = 0
KBY1 201038Z 28005KT 14/00 A2972 RMK A01 T01370000  RH  039%=      5-min Rain = 0
KBY1 201039Z 28006KT 14/00 A2972 RMK A01 T01380000  RH  039%=      5-min Rain = 0
KBY1 201040Z 27004KT 14/00 A2972 RMK A01 T013900-0  RH  039%=      5-min Rain = 0
KBY1 201041Z 27005KT 14/00 A2972 RMK A01 T01390000  RH  039%=      5-min Rain = 0
KBY1 201042Z 28005KT 14/00 A2972 RMK A01 T013800-0  RH  039%=      5-min Rain = 0
KBY1 201043Z 26007KT 14/00 A2972 RMK A01 T013800-0  RH  039%=      5-min Rain = 0
KBY1 201044Z 27007KT 14/00 A2972 RMK A01 T013800-0  RH  039%=      5-min Rain = 0
KBY1 201045Z 27005KT 14/00 A2972 RMK A01 T01400000  RH  038%=      5-min Rain = 0
KBY1 201046Z 28004KT 14/00 A2972 RMK A01 T014000-0  RH  038%=      5-min Rain = 0
KBY1 201047Z 27003KT 14/00 A2972 RMK A01 T013900-0  RH  038%=      5-min Rain = 0
KBY1 201048Z 27004KT 14/00 A2972 RMK A01 T013700-0  RH  039%=      5-min Rain = 0
KBY1 201049Z 28004KT 14/00 A2972 RMK A01 T013600-0  RH  039%=      5-min Rain = 0
KBY1 201050Z 29005KT 14/00 A2972 RMK A01 T013500-0  RH  039%=      5-min Rain = 0
KBY1 201051Z 29006KT 13/00 A2972 RMK A01 T013400-0  RH  040%=      5-min Rain = 0
KBY1 201052Z 29006KT 13/00 A2972 RMK A01 T013300-0  RH  040%=      5-min Rain = 0
KBY1 201053Z 29004KT 13/00 A2972 RMK A01 T01330000  RH  040%=      5-min Rain = 0
KBY1 201054Z 29004KT 13/00 A2972 RMK A01 T01320001  RH  041%=      5-min Rain = 0
KBY1 201055Z 28004KT 13/00 A2972 RMK A01 T01310000  RH  041%=      5-min Rain = 0
KBY1 201056Z 28005KT 13/00 A2972 RMK A01 T01300001  RH  041%=      5-min Rain = 0
KBY1 201057Z 28004KT 13/00 A2972 RMK A01 T01300000  RH  041%=      5-min Rain = 0
KBY1 201058Z 28004KT 13/00 A2972 RMK A01 T01310001  RH  041%=      5-min Rain = 0
KBY1 201059Z 27005KT 13/00 A2972 RMK A01 T01320001  RH  041%=      5-min Rain = 0
KBY1 201100Z 28005KT 13/00 A2972 RMK A01 T01320001  RH  041%=      5-min Rain = 0
KBY1 201101Z 28005KT 13/00 A2972 RMK A01 T01310001  RH  041%=      5-min Rain = 0
KBY1 201102Z 27004KT 13/00 A2972 RMK A01 T01310001  RH  041%=      5-min Rain = 0
KBY1 201103Z 27005KT 13/00 A2972 RMK A01 T01310001  RH  041%=      5-min Rain = 0
KBY1 201104Z 27005KT 13/00 A2972 RMK A01 T01300001  RH  041%=      5-min Rain = 0
KBY1 201105Z 26006KT 13/00 A2972 RMK A01 T01300001  RH  041%=      5-min Rain = 0
KBY1 201106Z 26006KT 13/00 A2972 RMK A01 T01290001  RH  041%=      5-min Rain = 0
KBY1 201107Z 26005KT 13/00 A2972 RMK A01 T01300001  RH  041%=      5-min Rain = 0
KBY1 201108Z 26006KT 13/00 A2972 RMK A01 T01300002  RH  041%=      5-min Rain = 0
KBY1 201109Z 26005KT 13/00 A2972 RMK A01 T01300002  RH  041%=      5-min Rain = 0
KBY1 201110Z 26005KT 13/00 A2972 RMK A01 T01300001  RH  041%=      5-min Rain = 0
KBY1 201111Z 26005KT 13/00 A2972 RMK A01 T01300001  RH  041%=      5-min Rain = 0
KBY1 201112Z 25006KT 13/00 A2972 RMK A01 T01300002  RH  041%=      5-min Rain = 0
KBY1 201113Z 24005KT 13/00 A2972 RMK A01 T01290002  RH  041%=      5-min Rain = 0
KBY1 201114Z 24005KT 13/00 A2972 RMK A01 T01280002  RH  042%=      5-min Rain = 0
KBY1 201115Z 23005KT 13/00 A2972 RMK A01 T01280002  RH  042%=      5-min Rain = 0
KBY1 201116Z 24004KT 13/00 A2972 RMK A01 T01270002  RH  042%=      5-min Rain = 0
KBY1 201117Z 23003KT 13/00 A2972 RMK A01 T01260001  RH  042%=      5-min Rain = 0
KBY1 201118Z 22004KT 13/00 A2972 RMK A01 T01260002  RH  043%=      5-min Rain = 0
KBY1 201119Z 22003KT 12/00 A2972 RMK A01 T01240001  RH  043%=      5-min Rain = 0
KBY1 201120Z 22002KT 12/00 A2972 RMK A01 T01230001  RH  043%=      5-min Rain = 0
KBY1 201121Z 22003KT 12/00 A2972 RMK A01 T01220001  RH  043%=      5-min Rain = 0
KBY1 201122Z 22003KT 12/00 A2972 RMK A01 T01220000  RH  043%=      5-min Rain = 0
KBY1 201123Z 21002KT 12/00 A2972 RMK A01 T01210000  RH  044%=      5-min Rain = 0
KBY1 201124Z 22002KT 12/00 A2972 RMK A01 T01190000  RH  044%=      5-min Rain = 0
KBY1 201125Z 21002KT 12/00 A2972 RMK A01 T01170000  RH  044%=      5-min Rain = 0
KBY1 201126Z 23002KT 12/00 A2972 RMK A01 T01160000  RH  045%=      5-min Rain = 0
KBY1 201127Z 18002KT 12/00 A2972 RMK A01 T01150000  RH  045%=      5-min Rain = 0
KBY1 201128Z 22005KT 12/00 A2972 RMK A01 T01150001  RH  045%=      5-min Rain = 0
KBY1 201129Z 22004KT 12/00 A2972 RMK A01 T01150001  RH  045%=      5-min Rain = 0
KBY1 201130Z 22002KT 12/00 A2972 RMK A01 T01150002  RH  046%=      5-min Rain = 0
KBY1 201131Z 24002KT 11/00 A2972 RMK A01 T01140002  RH  046%=      5-min Rain = 0
KBY1 201132Z 24001KT 11/00 A2972 RMK A01 T01140002  RH  046%=      5-min Rain = 0
KBY1 201133Z 22002KT 11/00 A2972 RMK A01 T01130002  RH  046%=      5-min Rain = 0
KBY1 201134Z 21003KT 11/00 A2972 RMK A01 T01130002  RH  046%=      5-min Rain = 0
KBY1 201135Z 21002KT 11/00 A2972 RMK A01 T01130002  RH  046%=      5-min Rain = 0
KBY1 201136Z 24002KT 11/00 A2972 RMK A01 T01130002  RH  047%=      5-min Rain = 0
KBY1 201137Z 23004KT 11/00 A2972 RMK A01 T01130002  RH  047%=      5-min Rain = 0
KBY1 201138Z 22003KT 11/00 A2972 RMK A01 T01140003  RH  046%=      5-min Rain = 0
KBY1 201139Z 22003KT 11/00 A2972 RMK A01 T01140003  RH  046%=      5-min Rain = 0
KBY1 201140Z 25001KT 11/00 A2972 RMK A01 T01140003  RH  046%=      5-min Rain = 0
KBY1 201141Z 26000KT 11/00 A2972 RMK A01 T01140003  RH  046%=      5-min Rain = 0
KBY1 201142Z 00000KT 11/00 A2972 RMK A01 T01120004  RH  047%=      5-min Rain = 0
KBY1 201143Z 21000KT 11/00 A2972 RMK A01 T01120002  RH  047%=      5-min Rain = 0
KBY1 201144Z 20000KT 11/00 A2972 RMK A01 T01120003  RH  047%=      5-min Rain = 0
KBY1 201145Z 22000KT 11/00 A2972 RMK A01 T01120003  RH  047%=      5-min Rain = 0
KBY1 201146Z 18001KT 11/00 A2972 RMK A01 T01110004  RH  048%=      5-min Rain = 0
KBY1 201147Z 16000KT 11/00 A2972 RMK A01 T01080004  RH  049%=      5-min Rain = 0
KBY1 201148Z 19001KT 11/01 A2972 RMK A01 T01050005  RH  050%=      5-min Rain = 0
KBY1 201149Z 00000KT 10/00 A2972 RMK A01 T01020003  RH  050%=      5-min Rain = 0
KBY1 201150Z 00000KT 11/00 A2972 RMK A01 T01050003  RH  049%=      5-min Rain = 0
KBY1 201151Z 06001KT 11/00 A2972 RMK A01 T01080004  RH  049%=      5-min Rain = 0
KBY1 201152Z 04001KT 11/01 A2972 RMK A01 T01070005  RH  049%=      5-min Rain = 0
KBY1 201153Z 06001KT 11/00 A2972 RMK A01 T01060004  RH  049%=      5-min Rain = 0
KBY1 201154Z 05001KT 11/00 A2972 RMK A01 T01070003  RH  049%=      5-min Rain = 0
KBY1 201155Z 00000KT 11/01 A2972 RMK A01 T01090005  RH  049%=      5-min Rain = 0
KBY1 201156Z 04001KT 11/01 A2972 RMK A01 T01070005  RH  049%=      5-min Rain = 0
KBY1 201157Z 04002KT 11/00 A2972 RMK A01 T01060004  RH  049%=      5-min Rain = 0
KBY1 201158Z 05001KT 11/00 A2972 RMK A01 T01060004  RH  049%=      5-min Rain = 0
KBY1 201159Z 02000KT 11/01 A2972 RMK A01 T01070005  RH  049%=      5-min Rain = 0
KBY1 201200Z 33000KT 11/01 A2972 RMK A01 T01070005  RH  049%=      5-min Rain = 0
KBY1 201201Z 02001KT 11/00 A2972 RMK A01 T01080003  RH  048%=      5-min Rain = 0
KBY1 201202Z 03003KT 11/01 A2972 RMK A01 T01100005  RH  048%=      5-min Rain = 0
KBY1 201203Z 03003KT 11/01 A2972 RMK A01 T01090005  RH  049%=      5-min Rain = 0
KBY1 201204Z 03004KT 11/01 A2972 RMK A01 T01070006  RH  049%=      5-min Rain = 0
KBY1 201205Z 03003KT 10/01 A2972 RMK A01 T01030005  RH  050%=      5-min Rain = 0
KBY1 201206Z 04003KT 10/01 A2972 RMK A01 T01020005  RH  051%=      5-min Rain = 0
KBY1 201207Z 04003KT 10/01 A2972 RMK A01 T01020005  RH  051%=      5-min Rain = 0
KBY1 201208Z 06004KT 10/01 A2972 RMK A01 T01010007  RH  052%=      5-min Rain = 0
KBY1 201209Z 09003KT 10/01 A2972 RMK A01 T01000006  RH  052%=      5-min Rain = 0
KBY1 201210Z 10003KT 10/01 A2971 RMK A01 T01030006  RH  051%=      5-min Rain = 0
KBY1 201211Z 11004KT 10/01 A2971 RMK A01 T01040008  RH  051%=      5-min Rain = 0
KBY1 201212Z 14004KT 10/01 A2971 RMK A01 T01030007  RH  052%=      5-min Rain = 0
KBY1 201213Z 16004KT 10/01 A2971 RMK A01 T01020006  RH  051%=      5-min Rain = 0
KBY1 201214Z 14003KT 11/00 A2971 RMK A01 T01050004  RH  050%=      5-min Rain = 0
KBY1 201215Z 16002KT 11/01 A2971 RMK A01 T01080006  RH  049%=      5-min Rain = 0
KBY1 201216Z 12002KT 11/01 A2971 RMK A01 T01070007  RH  050%=      5-min Rain = 0
KBY1 201217Z 35002KT 10/01 A2972 RMK A01 T01030006  RH  051%=      5-min Rain = 0
KBY1 201218Z 35003KT 10/01 A2972 RMK A01 T01020006  RH  051%=      5-min Rain = 0
KBY1 201219Z 34002KT 10/01 A2972 RMK A01 T01020007  RH  052%=      5-min Rain = 0
KBY1 201220Z 36001KT 10/01 A2972 RMK A01 T01020006  RH  051%=      5-min Rain = 0
KBY1 201221Z 05001KT 10/01 A2972 RMK A01 T01030006  RH  051%=      5-min Rain = 0
KBY1 201222Z 14001KT 10/01 A2972 RMK A01 T01040007  RH  051%=      5-min Rain = 0
KBY1 201223Z 16003KT 10/01 A2971 RMK A01 T01030007  RH  051%=      5-min Rain = 0
KBY1 201224Z 20006KT 10/01 A2971 RMK A01 T01000006  RH  052%=      5-min Rain = 0
KBY1 201225Z 17005KT 10/01 A2971 RMK A01 T00980005  RH  052%=      5-min Rain = 0
KBY1 201226Z 17006KT 10/01 A2971 RMK A01 T00980005  RH  052%=      5-min Rain = 0
KBY1 201227Z 18003KT 10/01 A2971 RMK A01 T00970005  RH  053%=      5-min Rain = 0
KBY1 201228Z 27006KT 10/00 A2971 RMK A01 T00970004  RH  053%=      5-min Rain = 0
KBY1 201229Z 27004KT 10/01 A2971 RMK A01 T01040005  RH  050%=      5-min Rain = 0
KBY1 201230Z 26006KT 11/01 A2972 RMK A01 T01100005  RH  049%=      5-min Rain = 0
KBY1 201231Z 31004KT 12/01 A2972 RMK A01 T01150005  RH  047%=      5-min Rain = 0
KBY1 201232Z 33003KT 12/01 A2971 RMK A01 T01170006  RH  046%=      5-min Rain = 0
KBY1 201233Z 35001KT 12/01 A2971 RMK A01 T01160005  RH  046%=      5-min Rain = 0
KBY1 201234Z 00002KT 12/01 A2971 RMK A01 T01150006  RH  047%=      5-min Rain = 0
KBY1 201235Z 01002KT 11/01 A2971 RMK A01 T01130005  RH  048%=      5-min Rain = 0
KBY1 201236Z 01002KT 11/01 A2971 RMK A01 T01110006  RH  048%=      5-min Rain = 0
KBY1 201237Z 01001KT 11/01 A2971 RMK A01 T01090005  RH  049%=      5-min Rain = 0
KBY1 201238Z 34001KT 11/01 A2971 RMK A01 T01080005  RH  049%=      5-min Rain = 0
KBY1 201239Z 30001KT 11/00 A2971 RMK A01 T01080004  RH  049%=      5-min Rain = 0
KBY1 201240Z 32002KT 11/01 A2971 RMK A01 T01100005  RH  049%=      5-min Rain = 0
KBY1 201241Z 29001KT 11/01 A2971 RMK A01 T01090006  RH  049%=      5-min Rain = 0
KBY1 201242Z 30001KT 11/01 A2971 RMK A01 T01060006  RH  050%=      5-min Rain = 0
KBY1 201243Z 28000KT 11/01 A2971 RMK A01 T01050005  RH  050%=      5-min Rain = 0
KBY1 201244Z 00000KT 10/01 A2971 RMK A01 T01020007  RH  051%=      5-min Rain = 0
KBY1 201245Z 00000KT 10/01 A2971 RMK A01 T01010006  RH  052%=      5-min Rain = 0
KBY1 201246Z 14001KT 10/01 A2971 RMK A01 T00970005  RH  053%=      5-min Rain = 0
KBY1 201247Z 23002KT 10/01 A2971 RMK A01 T00960005  RH  053%=      5-min Rain = 0
KBY1 201248Z 24003KT 10/01 A2971 RMK A01 T00970005  RH  053%=      5-min Rain = 0
KBY1 201249Z 23002KT 10/01 A2971 RMK A01 T00980005  RH  053%=      5-min Rain = 0
KBY1 201250Z 24003KT 10/01 A2971 RMK A01 T00980005  RH  052%=      5-min Rain = 0
KBY1 201251Z 22002KT 10/00 A2971 RMK A01 T01010004  RH  051%=      5-min Rain = 0
KBY1 201252Z 19002KT 10/01 A2971 RMK A01 T01040005  RH  050%=      5-min Rain = 0
KBY1 201253Z 17001KT 11/01 A2971 RMK A01 T01050005  RH  050%=      5-min Rain = 0
KBY1 201254Z 14001KT 11/01 A2971 RMK A01 T01050005  RH  050%=      5-min Rain = 0
KBY1 201255Z 15000KT 11/01 A2971 RMK A01 T01050005  RH  050%=      5-min Rain = 0
KBY1 201256Z 11000KT 10/01 A2971 RMK A01 T01040006  RH  051%=      5-min Rain = 0
KBY1 201257Z 11000KT 10/01 A2971 RMK A01 T01030006  RH  051%=      5-min Rain = 0
KBY1 201258Z 35000KT 10/01 A2971 RMK A01 T01030005  RH  051%=      5-min Rain = 0
KBY1 201259Z 29001KT 10/00 A2971 RMK A01 T01040004  RH  050%=      5-min Rain = 0
KBY1 201300Z 27003KT 11/00 A2971 RMK A01 T01070004  RH  049%=      5-min Rain = 0
KBY1 201301Z 26006KT 11/01 A2972 RMK A01 T01100005  RH  048%=      5-min Rain = 0
KBY1 201302Z 27006KT 12/01 A2972 RMK A01 T01150006  RH  047%=      5-min Rain = 0
KBY1 201303Z 25006KT 12/01 A2971 RMK A01 T01190006  RH  046%=      5-min Rain = 0
KBY1 201304Z 25006KT 12/01 A2971 RMK A01 T01210006  RH  045%=      5-min Rain = 0
KBY1 201305Z 24005KT 12/01 A2971 RMK A01 T01220006  RH  045%=      5-min Rain = 0
KBY1 201306Z 23008KT 12/01 A2971 RMK A01 T01230005  RH  044%=      5-min Rain = 0
KBY1 201307Z 24010KT 13/01 A2971 RMK A01 T01260005  RH  043%=      5-min Rain = 0
KBY1 201308Z 32007KT 13/01 A2972 RMK A01 T01290005  RH  043%=      5-min Rain = 0
KBY1 201309Z 33007KT 13/01 A2972 RMK A01 T01270006  RH  043%=      5-min Rain = 0
KBY1 201310Z 34006KT 12/01 A2972 RMK A01 T01240005  RH  044%=      5-min Rain = 0
KBY1 201311Z 34006KT 12/01 A2972 RMK A01 T01230005  RH  045%=      5-min Rain = 0
KBY1 201312Z 31004KT 12/01 A2971 RMK A01 T01220005  RH  045%=      5-min Rain = 0
KBY1 201313Z 29004KT 12/01 A2971 RMK A01 T01220005  RH  045%=      5-min Rain = 0
KBY1 201314Z 26003KT 12/00 A2971 RMK A01 T01220004  RH  044%=      5-min Rain = 0
KBY1 201315Z 27006KT 12/01 A2971 RMK A01 T01230005  RH  044%=      5-min Rain = 0
KBY1 201316Z 28005KT 13/01 A2971 RMK A01 T01250006  RH  044%=      5-min Rain = 0
KBY1 201317Z 28007KT 13/01 A2972 RMK A01 T01250006  RH  044%=      5-min Rain = 0
KBY1 201318Z 27005KT 13/01 A2972 RMK A01 T01250006  RH  044%=      5-min Rain = 0
KBY1 201319Z 27005KT 13/01 A2971 RMK A01 T01260006  RH  044%=      5-min Rain = 0
KBY1 201320Z 27004KT 13/01 A2971 RMK A01 T01260007  RH  044%=      5-min Rain = 0
KBY1 201321Z 29002KT 13/01 A2971 RMK A01 T01260008  RH  044%=      5-min Rain = 0
KBY1 201322Z 27002KT 13/01 A2971 RMK A01 T01250009  RH  045%=      5-min Rain = 0
KBY1 201323Z 28003KT 12/01 A2971 RMK A01 T01240009  RH  045%=      5-min Rain = 0
KBY1 201324Z 27002KT 12/01 A2971 RMK A01 T01240008  RH  045%=      5-min Rain = 0
KBY1 201325Z 27001KT 12/01 A2971 RMK A01 T01230009  RH  046%=      5-min Rain = 0
KBY1 201326Z 24001KT 12/01 A2971 RMK A01 T01230009  RH  046%=      5-min Rain = 0
KBY1 201327Z 00000KT 12/01 A2971 RMK A01 T01220009  RH  046%=      5-min Rain = 0
KBY1 201328Z 26000KT 12/01 A2971 RMK A01 T01220010  RH  046%=      5-min Rain = 0
KBY1 201329Z 28002KT 12/01 A2971 RMK A01 T01220009  RH  046%=      5-min Rain = 0
KBY1 201330Z 30003KT 12/01 A2971 RMK A01 T01220010  RH  046%=      5-min Rain = 0
KBY1 201331Z 30002KT 12/01 A2971 RMK A01 T01220010  RH  046%=      5-min Rain = 0
KBY1 201332Z 29003KT 12/01 A2971 RMK A01 T01230009  RH  046%=      5-min Rain = 0
KBY1 201333Z 30002KT 12/01 A2971 RMK A01 T01230009  RH  046%=      5-min Rain = 0
KBY1 201334Z 30002KT 12/01 A2971 RMK A01 T01240011  RH  046%=      5-min Rain = 0
KBY1 201335Z 29002KT 12/01 A2971 RMK A01 T01240010  RH  046%=      5-min Rain = 0
KBY1 201336Z 29002KT 12/01 A2971 RMK A01 T01240009  RH  045%=      5-min Rain = 0
KBY1 201337Z 28003KT 12/01 A2971 RMK A01 T01240009  RH  045%=      5-min Rain = 0
KBY1 201338Z 28003KT 13/01 A297 RMK A01 T01250008  RH  045%=      5-min Rain = 0
KBY1 201339Z 28003KT 13/01 A297 RMK A01 T01250008  RH  045%=      5-min Rain = 0
KBY1 201340Z 27002KT 13/01 A297 RMK A01 T01260008  RH  045%=      5-min Rain = 0
KBY1 201341Z 28002KT 13/01 A297 RMK A01 T01260008  RH  044%=      5-min Rain = 0
KBY1 201342Z 28002KT 13/01 A297 RMK A01 T01260010  RH  045%=      5-min Rain = 0
KBY1 201343Z 30002KT 13/01 A297 RMK A01 T01260009  RH  045%=      5-min Rain = 0
KBY1 201344Z 29003KT 13/01 A297 RMK A01 T01260010  RH  045%=      5-min Rain = 0
KBY1 201345Z 30003KT 13/01 A297 RMK A01 T01270011  RH  045%=      5-min Rain = 0
KBY1 201346Z 30004KT 13/01 A297 RMK A01 T01260011  RH  045%=      5-min Rain = 0
KBY1 201347Z 30005KT 13/01 A297 RMK A01 T01260012  RH  046%=      5-min Rain = 0
KBY1 201348Z 30005KT 13/01 A297 RMK A01 T01260012  RH  046%=      5-min Rain = 0
KBY1 201349Z 30005KT 13/01 A297 RMK A01 T01270013  RH  046%=      5-min Rain = 0
KBY1 201350Z 30005KT 13/01 A297 RMK A01 T01270012  RH  045%=      5-min Rain = 0
KBY1 201351Z 30004KT 13/01 A297 RMK A01 T01280010  RH  044%=      5-min Rain = 0
KBY1 201352Z 30005KT 13/01 A297 RMK A01 T01290009  RH  044%=      5-min Rain = 0
KBY1 201353Z 29004KT 13/01 A297 RMK A01 T01310009  RH  043%=      5-min Rain = 0
KBY1 201354Z 28004KT 13/01 A297 RMK A01 T01320008  RH  043%=      5-min Rain = 0
KBY1 201355Z 28004KT 13/01 A297 RMK A01 T01330008  RH  042%=      5-min Rain = 0
KBY1 201356Z 28003KT 13/01 A297 RMK A01 T01340008  RH  042%=      5-min Rain = 0
KBY1 201357Z 28005KT 14/01 A297 RMK A01 T01350007  RH  041%=      5-min Rain = 0
KBY1 201358Z 28005KT 14/01 A297 RMK A01 T01370007  RH  041%=      5-min Rain = 0
KBY1 201359Z 28005KT 14/01 A297 RMK A01 T01390006  RH  040%=      5-min Rain = 0
KBY1 201400Z 28005KT 14/01 A297 RMK A01 T01410007  RH  040%=      5-min Rain = 0
KBY1 201401Z 27005KT 14/01 A297 RMK A01 T01420006  RH  040%=      5-min Rain = 0
KBY1 201402Z 27005KT 14/01 A2971 RMK A01 T01430007  RH  040%=      5-min Rain = 0
KBY1 201403Z 28006KT 14/01 A2971 RMK A01 T01440007  RH  039%=      5-min Rain = 0
KBY1 201404Z 28005KT 15/01 A2971 RMK A01 T01460006  RH  038%=      5-min Rain = 0
KBY1 201405Z 28005KT 15/01 A2971 RMK A01 T01480008  RH  039%=      5-min Rain = 0
KBY1 201406Z 28005KT 15/01 A2971 RMK A01 T01500007  RH  038%=      5-min Rain = 0
KBY1 201407Z 28005KT 15/01 A2971 RMK A01 T01510008  RH  038%=      5-min Rain = 0
KBY1 201408Z 27006KT 15/01 A2971 RMK A01 T01520008  RH  037%=      5-min Rain = 0
KBY1 201409Z 26006KT 15/01 A2971 RMK A01 T01540007  RH  037%=      5-min Rain = 0
KBY1 201410Z 27005KT 16/00 A2971 RMK A01 T01560004  RH  035%=      5-min Rain = 0
KBY1 201411Z 28005KT 16/01 A2971 RMK A01 T01590006  RH  035%=      5-min Rain = 0
KBY1 201412Z 27007KT 16/01 A2971 RMK A01 T01610005  RH  035%=      5-min Rain = 0
KBY1 201413Z 27006KT 16/00 A2971 RMK A01 T01620004  RH  034%=      5-min Rain = 0
KBY1 201414Z 27006KT 16/01 A2971 RMK A01 T01630005  RH  034%=      5-min Rain = 0
KBY1 201415Z 27006KT 16/00 A2971 RMK A01 T01630004  RH  034%=      5-min Rain = 0
KBY1 201416Z 27005KT 16/01 A2971 RMK A01 T01630005  RH  034%=      5-min Rain = 0
KBY1 201417Z 26006KT 16/01 A2971 RMK A01 T01630005  RH  034%=      5-min Rain = 0
KBY1 201418Z 26005KT 16/01 A2971 RMK A01 T01630005  RH  034%=      5-min Rain = 0
KBY1 201419Z 26005KT 16/01 A2971 RMK A01 T01630005  RH  034%=      5-min Rain = 0
KBY1 201420Z 26009KT 16/00 A2971 RMK A01 T01640002  RH  033%=      5-min Rain = 0
KBY1 201421Z 26007KT 17/00 A2971 RMK A01 T01650000  RH  033%=      5-min Rain = 0
KBY1 201422Z 26006KT 17/00 A2971 RMK A01 T01660001  RH  033%=      5-min Rain = 0
KBY1 201423Z 27006KT 17/00 A2971 RMK A01 T016700-0  RH  032%=      5-min Rain = 0
KBY1 201424Z 27007KT 17/00 A2971 RMK A01 T016800-0  RH  032%=      5-min Rain = 0
KBY1 201425Z 26007KT 17/00 A2971 RMK A01 T016900-0  RH  032%=      5-min Rain = 0
KBY1 201426Z 27007KT 17/00 A2971 RMK A01 T016900-0  RH  032%=      5-min Rain = 0
KBY1 201427Z 27007KT 17/M00 A2971 RMK A01 T01701001  RH  031%=      5-min Rain = 0
KBY1 201428Z 28008KT 17/M00 A2971 RMK A01 T01711001  RH  031%=      5-min Rain = 0
KBY1 201429Z 28008KT 17/M00 A2972 RMK A01 T01721002  RH  031%=      5-min Rain = 0
KBY1 201430Z 28006KT 17/M00 A2972 RMK A01 T01731002  RH  031%=      5-min Rain = 0
KBY1 201431Z 28007KT 18/00 A2972 RMK A01 T01760000  RH  031%=      5-min Rain = 0
KBY1 201432Z 28008KT 18/00 A2971 RMK A01 T01780002  RH  030%=      5-min Rain = 0
KBY1 201433Z 28009KT 18/M00 A2972 RMK A01 T01791001  RH  030%=      5-min Rain = 0
KBY1 201434Z 27009KT 18/M00 A2972 RMK A01 T01801003  RH  029%=      5-min Rain = 0
KBY1 201435Z 27007KT 18/M00 A2972 RMK A01 T01801001  RH  029%=      5-min Rain = 0
KBY1 201436Z 27009KT 18/M00 A2972 RMK A01 T01801002  RH  029%=      5-min Rain = 0
KBY1 201437Z 27008KT 18/M00 A2972 RMK A01 T01801001  RH  029%=      5-min Rain = 0
KBY1 201438Z 27008KT 18/M00 A2972 RMK A01 T01791002  RH  029%=      5-min Rain = 0
KBY1 201439Z 27008KT 18/M00 A2972 RMK A01 T01791003  RH  029%=      5-min Rain = 0
KBY1 201440Z 27007KT 18/M00 A2972 RMK A01 T01791002  RH  029%=      5-min Rain = 0
KBY1 201441Z 27008KT 18/M00 A2972 RMK A01 T01791003  RH  029%=      5-min Rain = 0
KBY1 201442Z 27006KT 18/M00 A2972 RMK A01 T01801003  RH  029%=      5-min Rain = 0
KBY1 201443Z 26008KT 18/M00 A2972 RMK A01 T01801002  RH  029%=      5-min Rain = 0
KBY1 201444Z 27007KT 18/M00 A2972 RMK A01 T01801003  RH  029%=      5-min Rain = 0
KBY1 201445Z 27009KT 18/M00 A2972 RMK A01 T01801002  RH  029%=      5-min Rain = 0
KBY1 201446Z 26007KT 18/M00 A2972 RMK A01 T01791002  RH  029%=      5-min Rain = 0
KBY1 201447Z 26008G13KT 18/M00 A2972 RMK A01 T01801001  RH  029%=      5-min Rain = 0
KBY1 201448Z 26009KT 18/M00 A2972 RMK A01 T01801003  RH  029%=      5-min Rain = 0
KBY1 201449Z 26008KT 18/M00 A2972 RMK A01 T01801004  RH  029%=      5-min Rain = 0
KBY1 201450Z 27006KT 18/M00 A2972 RMK A01 T01801002  RH  029%=      5-min Rain = 0
KBY1 201451Z 27006KT 18/M00 A2972 RMK A01 T01801002  RH  029%=      5-min Rain = 0
KBY1 201452Z 26008KT 18/M00 A2972 RMK A01 T01801003  RH  029%=      5-min Rain = 0
KBY1 201453Z 26008KT 18/M00 A2972 RMK A01 T01801004  RH  029%=      5-min Rain = 0
KBY1 201454Z 28007KT 18/M00 A2972 RMK A01 T01811004  RH  029%=      5-min Rain = 0
KBY1 201455Z 26006KT 18/M00 A2972 RMK A01 T01801002  RH  029%=      5-min Rain = 0
KBY1 201456Z 26006KT 18/M00 A2972 RMK A01 T01811004  RH  029%=      5-min Rain = 0
KBY1 201457Z 26005KT 18/M00 A2972 RMK A01 T01801001  RH  029%=      5-min Rain = 0
KBY1 201458Z 26006KT 18/M00 A2972 RMK A01 T01811002  RH  029%=      5-min Rain = 0
KBY1 201459Z 27007KT 18/M00 A2972 RMK A01 T01811002  RH  029%=      5-min Rain = 0
KBY1 201500Z 25008KT 18/M00 A2972 RMK A01 T01811003  RH  029%=      5-min Rain = 0
KBY1 201501Z 24007KT 18/M00 A2972 RMK A01 T01811003  RH  029%=      5-min Rain = 0
KBY1 201502Z 26006KT 18/M00 A2972 RMK A01 T01801003  RH  029%=      5-min Rain = 0
KBY1 201503Z 25010KT 18/M00 A2972 RMK A01 T01811004  RH  029%=      5-min Rain = 0
KBY1 201504Z 25012KT 18/M01 A2972 RMK A01 T01811008  RH  028%=      5-min Rain = 0
KBY1 201505Z 25009KT 18/M01 A2972 RMK A01 T01821008  RH  028%=      5-min Rain = 0
KBY1 201506Z 25008KT 18/M01 A2972 RMK A01 T01821007  RH  028%=      5-min Rain = 0
KBY1 201507Z 25007KT 18/M01 A2972 RMK A01 T01821006  RH  028%=      5-min Rain = 0
KBY1 201508Z 25009KT 18/M01 A2972 RMK A01 T01821006  RH  028%=      5-min Rain = 0
KBY1 201509Z 25009KT 18/M01 A2972 RMK A01 T01821007  RH  028%=      5-min Rain = 0
KBY1 201510Z 24011KT 18/M01 A2972 RMK A01 T01821007  RH  028%=      5-min Rain = 0
KBY1 201511Z 25007KT 18/M01 A2972 RMK A01 T01831007  RH  028%=      5-min Rain = 0
KBY1 201512Z 26008KT 18/M01 A2972 RMK A01 T01821006  RH  028%=      5-min Rain = 0
KBY1 201513Z 25011KT 18/M01 A2972 RMK A01 T01821008  RH  028%=      5-min Rain = 0
KBY1 201514Z 26008KT 18/M01 A2972 RMK A01 T01831009  RH  027%=      5-min Rain = 0
KBY1 201515Z 26006KT 18/M01 A2972 RMK A01 T01831007  RH  028%=      5-min Rain = 0
KBY1 201516Z 26005KT 18/M01 A2972 RMK A01 T01831007  RH  028%=      5-min Rain = 0
KBY1 201517Z 25005KT 18/M01 A2972 RMK A01 T01831005  RH  028%=      5-min Rain = 0
KBY1 201518Z 27007KT 18/M01 A2972 RMK A01 T01831006  RH  028%=      5-min Rain = 0
KBY1 201519Z 27008KT 18/M01 A2972 RMK A01 T01831008  RH  027%=      5-min Rain = 0
KBY1 201520Z 27004KT 18/M01 A2972 RMK A01 T01831007  RH  028%=      5-min Rain = 0
KBY1 201521Z 29005KT 18/M00 A2972 RMK A01 T01831004  RH  028%=      5-min Rain = 0
KBY1 201522Z 32005KT 18/M00 A2972 RMK A01 T01831004  RH  028%=      5-min Rain = 0
KBY1 201523Z 32005KT 18/M00 A2973 RMK A01 T01831002  RH  029%=      5-min Rain = 0
KBY1 201524Z 34007KT 18/00 A2973 RMK A01 T018300-0  RH  029%=      5-min Rain = 0
KBY1 201525Z 00006KT 18/M00 A2973 RMK A01 T01821002  RH  029%=      5-min Rain = 0
KBY1 201526Z 01005KT 18/00 A2972 RMK A01 T01810002  RH  030%=      5-min Rain = 0
KBY1 201527Z 00004KT 18/00 A2972 RMK A01 T01800004  RH  031%=      5-min Rain = 0
KBY1 201528Z 00003KT 18/00 A2972 RMK A01 T01790001  RH  030%=      5-min Rain = 0
KBY1 201529Z 02003KT 18/M00 A2972 RMK A01 T01791002  RH  029%=      5-min Rain = 0
KBY1 201530Z 34003KT 18/00 A2972 RMK A01 T01790000  RH  030%=      5-min Rain = 0
KBY1 201531Z 31004KT 18/M00 A2972 RMK A01 T01791002  RH  029%=      5-min Rain = 0
KBY1 201532Z 31003KT 18/M00 A2972 RMK A01 T01801004  RH  029%=      5-min Rain = 0
KBY1 201533Z 31005KT 18/M01 A2972 RMK A01 T01801005  RH  029%=      5-min Rain = 0
KBY1 201534Z 28004KT 18/M00 A2973 RMK A01 T01801003  RH  029%=      5-min Rain = 0
KBY1 201535Z 26004KT 18/M00 A2973 RMK A01 T01811003  RH  029%=      5-min Rain = 0
KBY1 201536Z 28003KT 18/M00 A2973 RMK A01 T01811002  RH  029%=      5-min Rain = 0
KBY1 201537Z 29004KT 18/M00 A2973 RMK A01 T01811002  RH  029%=      5-min Rain = 0
KBY1 201538Z 29004KT 18/M01 A2973 RMK A01 T01821006  RH  028%=      5-min Rain = 0
KBY1 201539Z 29004KT 18/M01 A2972 RMK A01 T01821006  RH  028%=      5-min Rain = 0
KBY1 201540Z 33003KT 18/M01 A2972 RMK A01 T01821005  RH  028%=      5-min Rain = 0
KBY1 201541Z 31002KT 18/M00 A2972 RMK A01 T01821004  RH  028%=      5-min Rain = 0
KBY1 201542Z 32003KT 18/M00 A2972 RMK A01 T01831003  RH  028%=      5-min Rain = 0
KBY1 201543Z 33002KT 18/M00 A2972 RMK A01 T01831002  RH  029%=      5-min Rain = 0
KBY1 201544Z 32003KT 18/00 A2972 RMK A01 T01830002  RH  030%=      5-min Rain = 0
KBY1 201545Z 33004KT 18/M00 A2972 RMK A01 T01831001  RH  029%=      5-min Rain = 0
KBY1 201546Z 33005KT 18/M01 A2972 RMK A01 T01831007  RH  028%=      5-min Rain = 0
KBY1 201547Z 34002KT 18/M00 A2972 RMK A01 T01841003  RH  028%=      5-min Rain = 0
KBY1 201548Z 28002KT 19/M00 A2972 RMK A01 T01851001  RH  029%=      5-min Rain = 0
KBY1 201549Z 31003KT 19/M01 A2972 RMK A01 T01851005  RH  028%=      5-min Rain = 0
KBY1 201550Z 30004KT 19/M00 A2972 RMK A01 T01851003  RH  028%=      5-min Rain = 0
KBY1 201551Z 30004KT 19/M00 A2972 RMK A01 T01851002  RH  028%=      5-min Rain = 0
KBY1 201552Z 29003KT 19/M00 A2972 RMK A01 T01851002  RH  028%=      5-min Rain = 0
KBY1 201553Z 29005KT 19/M01 A2972 RMK A01 T01861005  RH  028%=      5-min Rain = 0
KBY1 201554Z 29005KT 19/M01 A2972 RMK A01 T01861005  RH  028%=      5-min Rain = 0
KBY1 201555Z 29004KT 19/M01 A2972 RMK A01 T01871005  RH  027%=      5-min Rain = 0
KBY1 201556Z 29006KT 19/M01 A2972 RMK A01 T01881006  RH  027%=      5-min Rain = 0
KBY1 201557Z 26008KT 19/M01 A2972 RMK A01 T01881009  RH  026%=      5-min Rain = 0
KBY1 201558Z 27011KT 19/M01 A2972 RMK A01 T01901013  RH  025%=      5-min Rain = 0
KBY1 201559Z 26009KT 19/M02 A2972 RMK A01 T01911018  RH  024%=      5-min Rain = 0
KBY1 201600Z 26007KT 19/M02 A2971 RMK A01 T01931017  RH  024%=      5-min Rain = 0
KBY1 201601Z 26006KT 19/M02 A2971 RMK A01 T01941016  RH  024%=      5-min Rain = 0
KBY1 201602Z 27008KT 19/M02 A2971 RMK A01 T01941016  RH  024%=      5-min Rain = 0
KBY1 201603Z 26008G13KT 19/M02 A2971 RMK A01 T01941018  RH  024%=      5-min Rain = 0
KBY1 201604Z 26009KT 19/M02 A2971 RMK A01 T01941020  RH  023%=      5-min Rain = 0
KBY1 201605Z 27007KT 20/M02 A2971 RMK A01 T01951019  RH  024%=      5-min Rain = 0
KBY1 201606Z 27008KT 20/M02 A2971 RMK A01 T01951018  RH  024%=      5-min Rain = 0
KBY1 201607Z 27009KT 20/M02 A2971 RMK A01 T01951020  RH  023%=      5-min Rain = 0
KBY1 201608Z 28007G12KT 20/M02 A2971 RMK A01 T01951022  RH  023%=      5-min Rain = 0
KBY1 201609Z 29007KT 20/M02 A2971 RMK A01 T01951021  RH  023%=      5-min Rain = 0
KBY1 201610Z 28007KT 20/M02 A2971 RMK A01 T01951020  RH  023%=      5-min Rain = 0
KBY1 201611Z 28006KT 20/M02 A2971 RMK A01 T01951019  RH  023%=      5-min Rain = 0
KBY1 201612Z 28005KT 19/M02 A2971 RMK A01 T01941019  RH  024%=      5-min Rain = 0
KBY1 201613Z 28006KT 19/M02 A2971 RMK A01 T01941017  RH  024%=      5-min Rain = 0
KBY1 201614Z 29007KT 19/M02 A2971 RMK A01 T01941017  RH  024%=      5-min Rain = 0
KBY1 201615Z 29006KT 19/M02 A2971 RMK A01 T01931017  RH  024%=      5-min Rain = 0
KBY1 201616Z 28006KT 19/M02 A2971 RMK A01 T01931016  RH  024%=      5-min Rain = 0
KBY1 201617Z 29006KT 19/M02 A2971 RMK A01 T01921015  RH  025%=      5-min Rain = 0
KBY1 201618Z 29007KT 19/M02 A2971 RMK A01 T01921017  RH  024%=      5-min Rain = 0
KBY1 201619Z 28007KT 19/M02 A2971 RMK A01 T01921018  RH  024%=      5-min Rain = 0
KBY1 201620Z 27006KT 19/M02 A2971 RMK A01 T01921019  RH  024%=      5-min Rain = 0
KBY1 201621Z 27006KT 19/M02 A2971 RMK A01 T01921017  RH  024%=      5-min Rain = 0
KBY1 201622Z 27008KT 19/M02 A2971 RMK A01 T01921019  RH  024%=      5-min Rain = 0
KBY1 201623Z 28007KT 19/M02 A2971 RMK A01 T01921018  RH  024%=      5-min Rain = 0
KBY1 201624Z 28007G12KT 19/M02 A297 RMK A01 T01921019  RH  024%=      5-min Rain = 0
KBY1 201625Z 29009KT 19/M02 A297 RMK A01 T01921019  RH  024%=      5-min Rain = 0
KBY1 201626Z 28008KT 19/M02 A297 RMK A01 T01931019  RH  024%=      5-min Rain = 0
KBY1 201627Z 28010KT 19/M02 A297 RMK A01 T01931019  RH  024%=      5-min Rain = 0
KBY1 201628Z 28010G15KT 19/M02 A297 RMK A01 T01921019  RH  024%=      5-min Rain = 0
KBY1 201629Z 29009KT 19/M02 A297 RMK A01 T01921019  RH  024%=      5-min Rain = 0
KBY1 201630Z 29007KT 19/M02 A297 RMK A01 T01911018  RH  024%=      5-min Rain = 0
KBY1 201631Z 29008KT 19/M02 A297 RMK A01 T01911017  RH  024%=      5-min Rain = 0
KBY1 201632Z 29007KT 19/M02 A297 RMK A01 T01911017  RH  025%=      5-min Rain = 0
KBY1 201633Z 29008KT 19/M02 A297 RMK A01 T01901016  RH  025%=      5-min Rain = 0
KBY1 201634Z 29008KT 19/M02 A297 RMK A01 T01901015  RH  025%=      5-min Rain = 0
KBY1 201635Z 29008KT 19/M02 A297 RMK A01 T01901015  RH  025%=      5-min Rain = 0
KBY1 201636Z 30007KT 19/M01 A297 RMK A01 T01891014  RH  025%=      5-min Rain = 0
KBY1 201637Z 29005KT 19/M01 A297 RMK A01 T01891012  RH  026%=      5-min Rain = 0
KBY1 201638Z 29005KT 19/M01 A297 RMK A01 T01891011  RH  026%=      5-min Rain = 0
KBY1 201639Z 30004KT 19/M01 A297 RMK A01 T01891010  RH  026%=      5-min Rain = 0
KBY1 201640Z 29008KT 19/M01 A297 RMK A01 T01881011  RH  026%=      5-min Rain = 0
KBY1 201641Z 29006KT 19/M01 A297 RMK A01 T01881012  RH  026%=      5-min Rain = 0
KBY1 201642Z 30006KT 19/M01 A297 RMK A01 T01881011  RH  026%=      5-min Rain = 0
KBY1 201643Z 29007KT 19/M01 A297 RMK A01 T01881011  RH  026%=      5-min Rain = 0
KBY1 201644Z 29007KT 19/M01 A297 RMK A01 T01881011  RH  026%=      5-min Rain = 0
KBY1 201645Z 29006KT 19/M01 A297 RMK A01 T01871010  RH  026%=      5-min Rain = 0
KBY1 201646Z 29006KT 19/M01 A297 RMK A01 T01871007  RH  027%=      5-min Rain = 0
KBY1 201647Z 29007KT 19/M01 A297 RMK A01 T01871010  RH  026%=      5-min Rain = 0
KBY1 201648Z 28005KT 19/M01 A297 RMK A01 T01871010  RH  026%=      5-min Rain = 0
KBY1 201649Z 28004KT 19/M01 A297 RMK A01 T01871008  RH  027%=      5-min Rain = 0
KBY1 201650Z 29006KT 19/M01 A297 RMK A01 T01871009  RH  027%=      5-min Rain = 0
KBY1 201651Z 28004KT 19/M01 A297 RMK A01 T01871008  RH  027%=      5-min Rain = 0
KBY1 201652Z 29007KT 19/M01 A297 RMK A01 T01871008  RH  027%=      5-min Rain = 0
KBY1 201653Z 29007KT 19/M01 A297 RMK A01 T01881009  RH  026%=      5-min Rain = 0
KBY1 201654Z 28006KT 19/M01 A297 RMK A01 T01881008  RH  027%=      5-min Rain = 0
KBY1 201655Z 28006KT 19/M01 A297 RMK A01 T01881007  RH  027%=      5-min Rain = 0
KBY1 201656Z 28005KT 19/M01 A297 RMK A01 T01891006  RH  027%=      5-min Rain = 0
KBY1 201657Z 29007KT 19/M01 A297 RMK A01 T01901006  RH  027%=      5-min Rain = 0
KBY1 201658Z 29006KT 19/M01 A297 RMK A01 T01901006  RH  027%=      5-min Rain = 0
KBY1 201659Z 28006KT 19/M01 A297 RMK A01 T01901006  RH  027%=      5-min Rain = 0
KBY1 201700Z 29007KT 19/M01 A297 RMK A01 T01911006  RH  026%=      5-min Rain = 0
KBY1 201701Z 28005KT 19/M01 A297 RMK A01 T01911006  RH  026%=      5-min Rain = 0
KBY1 201702Z 29005KT 19/M01 A297 RMK A01 T01911006  RH  026%=      5-min Rain = 0
KBY1 201703Z 29005KT 19/M01 A297 RMK A01 T01921006  RH  026%=      5-min Rain = 0
KBY1 201704Z 29006KT 19/M01 A297 RMK A01 T01921005  RH  027%=      5-min Rain = 0
KBY1 201705Z 29004KT 19/M01 A297 RMK A01 T01931005  RH  026%=      5-min Rain = 0
KBY1 201706Z 27005KT 19/M00 A297 RMK A01 T01931003  RH  027%=      5-min Rain = 0
KBY1 201707Z 27004KT 19/M00 A297 RMK A01 T01931003  RH  027%=      5-min Rain = 0
KBY1 201708Z 26006KT 19/M01 A297 RMK A01 T01941005  RH  026%=      5-min Rain = 0
KBY1 201709Z 27003KT 19/M00 A297 RMK A01 T01941003  RH  026%=      5-min Rain = 0
KBY1 201710Z 27005KT 20/M00 A297 RMK A01 T01951001  RH  027%=      5-min Rain = 0
KBY1 201711Z 27008KT 20/M01 A297 RMK A01 T01961008  RH  025%=      5-min Rain = 0
KBY1 201712Z 27006KT 20/M01 A297 RMK A01 T01971008  RH  025%=      5-min Rain = 0
KBY1 201713Z 26007KT 20/M01 A297 RMK A01 T01981011  RH  025%=      5-min Rain = 0
KBY1 201714Z 25007KT 20/M01 A2969 RMK A01 T01991012  RH  024%=      5-min Rain = 0
KBY1 201715Z 27008KT 20/M01 A2969 RMK A01 T02011014  RH  023%=      5-min Rain = 0
KBY1 201716Z 27008KT 20/M01 A297 RMK A01 T02021014  RH  023%=      5-min Rain = 0
KBY1 201717Z 26009KT 20/M02 A2969 RMK A01 T02031019  RH  022%=      5-min Rain = 0
KBY1 201718Z 26007KT 21/M02 A297 RMK A01 T02051017  RH  022%=      5-min Rain = 0
KBY1 201719Z 26007KT 21/M02 A297 RMK A01 T02061018  RH  022%=      5-min Rain = 0
KBY1 201720Z 26010KT 21/M02 A297 RMK A01 T02061016  RH  022%=      5-min Rain = 0
KBY1 201721Z 27009KT 21/M02 A297 RMK A01 T02071019  RH  022%=      5-min Rain = 0
KBY1 201722Z 26011G16KT 21/M02 A297 RMK A01 T02071019  RH  022%=      5-min Rain = 0
KBY1 201723Z 27008KT 21/M02 A297 RMK A01 T02071019  RH  022%=      5-min Rain = 0
KBY1 201724Z 27008KT 21/M02 A297 RMK A01 T02081015  RH  022%=      5-min Rain = 0
KBY1 201725Z 26009KT 21/M02 A297 RMK A01 T02081017  RH  022%=      5-min Rain = 0
KBY1 201726Z 27006KT 21/M02 A297 RMK A01 T02081017  RH  022%=      5-min Rain = 0
KBY1 201727Z 26010KT 21/M02 A297 RMK A01 T02081017  RH  022%=      5-min Rain = 0
KBY1 201728Z 27008KT 21/M02 A297 RMK A01 T02091017  RH  022%=      5-min Rain = 0
KBY1 201729Z 28004KT 21/M01 A297 RMK A01 T02091013  RH  023%=      5-min Rain = 0
KBY1 201730Z 27006KT 21/M01 A297 RMK A01 T02091010  RH  023%=      5-min Rain = 0
KBY1 201731Z 27007KT 21/M01 A297 RMK A01 T02091013  RH  022%=      5-min Rain = 0
KBY1 201732Z 27008KT 21/M02 A297 RMK A01 T02091018  RH  022%=      5-min Rain = 0
KBY1 201733Z 27008KT 21/M02 A297 RMK A01 T02091017  RH  022%=      5-min Rain = 0
KBY1 201734Z 27007KT 21/M02 A297 RMK A01 T02091015  RH  022%=      5-min Rain = 0
KBY1 201735Z 27005KT 21/M01 A297 RMK A01 T02091012  RH  023%=      5-min Rain = 0
KBY1 201736Z 26007KT 21/M01 A297 RMK A01 T02091010  RH  023%=      5-min Rain = 0
KBY1 201737Z 27008KT 21/M01 A297 RMK A01 T02091012  RH  023%=      5-min Rain = 0
KBY1 201738Z 27007KT 21/M01 A297 RMK A01 T02091014  RH  022%=      5-min Rain = 0
KBY1 201739Z 26006KT 21/M01 A297 RMK A01 T02091010  RH  023%=      5-min Rain = 0
KBY1 201740Z 27006KT 21/M01 A297 RMK A01 T02091011  RH  023%=      5-min Rain = 0
KBY1 201741Z 26005KT 21/M01 A297 RMK A01 T02091012  RH  023%=      5-min Rain = 0
KBY1 201742Z 27006KT 21/M01 A297 RMK A01 T02091011  RH  023%=      5-min Rain = 0
KBY1 201743Z 27007KT 21/M01 A297 RMK A01 T02101013  RH  022%=      5-min Rain = 0
KBY1 201744Z 27006KT 21/M01 A297 RMK A01 T02091014  RH  022%=      5-min Rain = 0
KBY1 201745Z 27004KT 21/M01 A297 RMK A01 T02091011  RH  023%=      5-min Rain = 0
KBY1 201746Z 27005KT 21/M01 A297 RMK A01 T02091013  RH  023%=      5-min Rain = 0
KBY1 201747Z 27004KT 21/M01 A297 RMK A01 T02091011  RH  023%=      5-min Rain = 0
KBY1 201748Z 26005KT 21/M01 A297 RMK A01 T02091010  RH  023%=      5-min Rain = 0
KBY1 201749Z 27005KT 21/M01 A297 RMK A01 T02091013  RH  022%=      5-min Rain = 0
KBY1 201750Z 27004KT 21/M01 A297 RMK A01 T02101009  RH  023%=      5-min Rain = 0
KBY1 201751Z 28004KT 21/M01 A297 RMK A01 T02091011  RH  023%=      5-min Rain = 0
KBY1 201752Z 27003KT 21/M01 A297 RMK A01 T02091010  RH  023%=      5-min Rain = 0
KBY1 201753Z 28002KT 21/M01 A297 RMK A01 T02091008  RH  023%=      5-min Rain = 0
KBY1 201754Z 30003KT 21/M01 A297 RMK A01 T02101006  RH  024%=      5-min Rain = 0
KBY1 201755Z 30004KT 21/M01 A297 RMK A01 T02091009  RH  023%=      5-min Rain = 0
KBY1 201756Z 29004KT 21/M01 A2969 RMK A01 T02101010  RH  023%=      5-min Rain = 0
KBY1 201757Z 28004KT 21/M01 A2969 RMK A01 T02101011  RH  023%=      5-min Rain = 0
KBY1 201758Z 29003KT 21/M01 A2969 RMK A01 T02101011  RH  023%=      5-min Rain = 0
KBY1 201759Z 29004KT 21/M01 A2969 RMK A01 T02101012  RH  022%=      5-min Rain = 0
KBY1 201800Z 28003KT 21/M01 A2969 RMK A01 T02111008  RH  023%=      5-min Rain = 0
KBY1 201801Z 28004KT 21/M01 A2969 RMK A01 T02111008  RH  023%=      5-min Rain = 0
KBY1 201802Z 28004KT 21/M01 A2969 RMK A01 T02121012  RH  022%=      5-min Rain = 0
KBY1 201803Z 27005KT 21/M01 A2969 RMK A01 T02121010  RH  023%=      5-min Rain = 0
KBY1 201804Z 27004KT 21/M01 A2969 RMK A01 T02131010  RH  022%=      5-min Rain = 0
KBY1 201805Z 30004KT 21/M01 A2969 RMK A01 T02131012  RH  022%=      5-min Rain = 0
KBY1 201806Z 30004KT 21/M01 A2969 RMK A01 T02141014  RH  022%=      5-min Rain = 0
KBY1 201807Z 30004KT 21/M02 A2969 RMK A01 T02141016  RH  021%=      5-min Rain = 0
KBY1 201808Z 30004KT 21/M02 A2969 RMK A01 T02141015  RH  022%=      5-min Rain = 0
KBY1 201809Z 31004KT 21/M02 A2969 RMK A01 T02141016  RH  021%=      5-min Rain = 0
KBY1 201810Z 31004KT 22/M01 A2969 RMK A01 T02151010  RH  022%=      5-min Rain = 0
KBY1 201811Z 31003KT 22/M02 A2968 RMK A01 T02161015  RH  021%=      5-min Rain = 0
KBY1 201812Z 30003KT 22/M01 A2968 RMK A01 T02161013  RH  022%=      5-min Rain = 0
KBY1 201813Z 30004KT 22/M01 A2968 RMK A01 T02171014  RH  021%=      5-min Rain = 0
KBY1 201814Z 29004KT 22/M01 A2968 RMK A01 T02171013  RH  021%=      5-min Rain = 0
KBY1 201815Z 29004KT 22/M02 A2968 RMK A01 T02181017  RH  021%=      5-min Rain = 0
KBY1 201816Z 28004KT 22/M02 A2968 RMK A01 T02181016  RH  021%=      5-min Rain = 0
KBY1 201817Z 28003KT 22/M02 A2968 RMK A01 T02181015  RH  021%=      5-min Rain = 0
KBY1 201818Z 26006KT 22/M02 A2968 RMK A01 T02191015  RH  021%=      5-min Rain = 0
KBY1 201819Z 25010KT 22/M02 A2968 RMK A01 T02191022  RH  020%=      5-min Rain = 0
KBY1 201820Z 26008KT 22/M03 A2968 RMK A01 T02211029  RH  018%=      5-min Rain = 0
KBY1 201821Z 26009KT 22/M03 A2968 RMK A01 T02241030  RH  018%=      5-min Rain = 0
KBY1 201822Z 26009KT 23/M03 A2968 RMK A01 T02251033  RH  017%=      5-min Rain = 0
KBY1 201823Z 25008KT 23/M03 A2968 RMK A01 T02271031  RH  018%=      5-min Rain = 0
KBY1 201824Z 26011KT 23/M04 A2968 RMK A01 T02271035  RH  017%=      5-min Rain = 0
KBY1 201825Z 26012KT 23/M04 A2968 RMK A01 T02281037  RH  017%=      5-min Rain = 0
KBY1 201826Z 27008KT 23/M04 A2968 RMK A01 T02281036  RH  017%=      5-min Rain = 0
KBY1 201827Z 27010G16KT 23/M03 A2968 RMK A01 T02291034  RH  017%=      5-min Rain = 0
KBY1 201828Z 26012KT 23/M04 A2967 RMK A01 T02291040  RH  016%=      5-min Rain = 0
KBY1 201829Z 27015G21KT 23/M04 A2967 RMK A01 T02291043  RH  016%=      5-min Rain = 0
KBY1 201830Z 27015KT 23/M04 A2967 RMK A01 T02291042  RH  016%=      5-min Rain = 0
KBY1 201831Z 26013G20KT 23/M04 A2967 RMK A01 T02301041  RH  016%=      5-min Rain = 0
KBY1 201832Z 27013G20KT 23/M05 A2967 RMK A01 T02301045  RH  016%=      5-min Rain = 0
KBY1 201833Z 26010KT 23/M05 A2967 RMK A01 T02301045  RH  016%=      5-min Rain = 0
KBY1 201834Z 26013G18KT 23/M05 A2967 RMK A01 T02301045  RH  016%=      5-min Rain = 0
KBY1 201835Z 26014KT 23/M04 A2967 RMK A01 T02311044  RH  016%=      5-min Rain = 0
KBY1 201836Z 27013KT 23/M05 A2967 RMK A01 T02311047  RH  015%=      5-min Rain = 0
KBY1 201837Z 26011G16KT 23/M05 A2967 RMK A01 T02311047  RH  015%=      5-min Rain = 0
KBY1 201838Z 26010G15KT 23/M04 A2967 RMK A01 T02321042  RH  016%=      5-min Rain = 0
KBY1 201839Z 26010KT 23/M04 A2967 RMK A01 T02331041  RH  016%=      5-min Rain = 0
KBY1 201840Z 26012G17KT 23/M04 A2967 RMK A01 T02341043  RH  015%=      5-min Rain = 0
KBY1 201841Z 26011G17KT 23/M04 A2967 RMK A01 T02341044  RH  015%=      5-min Rain = 0
KBY1 201842Z 26012KT 24/M05 A2966 RMK A01 T02351046  RH  015%=      5-min Rain = 0
KBY1 201843Z 26012KT 23/M05 A2966 RMK A01 T02341046  RH  015%=      5-min Rain = 0
KBY1 201844Z 26014KT 24/M05 A2966 RMK A01 T02351049  RH  015%=      5-min Rain = 0
KBY1 201845Z 25010KT 24/M05 A2966 RMK A01 T02351048  RH  015%=      5-min Rain = 0
KBY1 201846Z 24013KT 24/M05 A2966 RMK A01 T02351048  RH  015%=      5-min Rain = 0
KBY1 201847Z 25010KT 24/M05 A2966 RMK A01 T02351047  RH  015%=      5-min Rain = 0
KBY1 201848Z 26010G15KT 24/M04 A2966 RMK A01 T02361041  RH  015%=      5-min Rain = 0
KBY1 201849Z 27013KT 24/M05 A2966 RMK A01 T02371048  RH  015%=      5-min Rain = 0
KBY1 201850Z 26007KT 24/M05 A2966 RMK A01 T02371047  RH  015%=      5-min Rain = 0
KBY1 201851Z 26010KT 24/M04 A2966 RMK A01 T02361043  RH  015%=      5-min Rain = 0
KBY1 201852Z 26010G17KT 24/M05 A2966 RMK A01 T02361047  RH  015%=      5-min Rain = 0
KBY1 201853Z 25009KT 24/M05 A2966 RMK A01 T02351048  RH  015%=      5-min Rain = 0
KBY1 201854Z 24012KT 24/M05 A2966 RMK A01 T02351050  RH  015%=      5-min Rain = 0
KBY1 201855Z 25014KT 23/M05 A2965 RMK A01 T02341052  RH  014%=      5-min Rain = 0
KBY1 201856Z 25011KT 23/M05 A2965 RMK A01 T02341053  RH  014%=      5-min Rain = 0
KBY1 201857Z 25009KT 23/M05 A2965 RMK A01 T02341050  RH  015%=      5-min Rain = 0
KBY1 201858Z 25010KT 23/M05 A2965 RMK A01 T02331049  RH  015%=      5-min Rain = 0
KBY1 201859Z 26013G18KT 23/M05 A2965 RMK A01 T02331049  RH  015%=      5-min Rain = 0
KBY1 201900Z 26011KT 23/M05 A2965 RMK A01 T02331050  RH  015%=      5-min Rain = 0
KBY1 201901Z 25016G23KT 23/M05 A2965 RMK A01 T02321050  RH  015%=      5-min Rain = 0
KBY1 201902Z 25014G20KT 23/M05 A2965 RMK A01 T02321054  RH  014%=      5-min Rain = 0
KBY1 201903Z 25013KT 23/M05 A2965 RMK A01 T02321052  RH  015%=      5-min Rain = 0
KBY1 201904Z 24016KT 23/M05 A2965 RMK A01 T02321052  RH  015%=      5-min Rain = 0
KBY1 201905Z 24011KT 23/M05 A2965 RMK A01 T02321051  RH  015%=      5-min Rain = 0
KBY1 201906Z 25010KT 23/M05 A2965 RMK A01 T02321049  RH  015%=      5-min Rain = 0
KBY1 201907Z 26011KT 23/M05 A2965 RMK A01 T02321047  RH  015%=      5-min Rain = 0
KBY1 201908Z 26012G19KT 23/M05 A2965 RMK A01 T02311048  RH  015%=      5-min Rain = 0
KBY1 201909Z 26012KT 23/M05 A2965 RMK A01 T02311051  RH  015%=      5-min Rain = 0
KBY1 201910Z 25011G16KT 23/M05 A2965 RMK A01 T02311049  RH  015%=      5-min Rain = 0
KBY1 201911Z 26011KT 23/M05 A2965 RMK A01 T02311050  RH  015%=      5-min Rain = 0
KBY1 201912Z 26009KT 23/M05 A2965 RMK A01 T02311048  RH  015%=      5-min Rain = 0
KBY1 201913Z 26011KT 23/M05 A2965 RMK A01 T02311048  RH  015%=      5-min Rain = 0
KBY1 201914Z 25008KT 23/M05 A2965 RMK A01 T02301047  RH  015%=      5-min Rain = 0
KBY1 201915Z 25010KT 23/M05 A2965 RMK A01 T02311046  RH  015%=      5-min Rain = 0
KBY1 201916Z 26011KT 23/M05 A2965 RMK A01 T02301047  RH  015%=      5-min Rain = 0
KBY1 201917Z 26010KT 23/M05 A2965 RMK A01 T02301049  RH  015%=      5-min Rain = 0
KBY1 201918Z 26014KT 23/M05 A2964 RMK A01 T02311051  RH  015%=      5-min Rain = 0
KBY1 201919Z 25009KT 23/M05 A2964 RMK A01 T02311051  RH  015%=      5-min Rain = 0
KBY1 201920Z 25009KT 23/M05 A2964 RMK A01 T02311050  RH  015%=      5-min Rain = 0
KBY1 201921Z 26009KT 23/M05 A2964 RMK A01 T02311048  RH  015%=      5-min Rain = 0
KBY1 201922Z 25012KT 23/M05 A2964 RMK A01 T02311051  RH  015%=      5-min Rain = 0
KBY1 201923Z 25009KT 23/M05 A2964 RMK A01 T02311052  RH  015%=      5-min Rain = 0
KBY1 201924Z 25008KT 23/M05 A2964 RMK A01 T02311048  RH  015%=      5-min Rain = 0
KBY1 201925Z 26010KT 23/M05 A2964 RMK A01 T02321049  RH  015%=      5-min Rain = 0
KBY1 201926Z 25015KT 23/M05 A2964 RMK A01 T02331052  RH  015%=      5-min Rain = 0
KBY1 201927Z 24012KT 23/M05 A2964 RMK A01 T02331053  RH  014%=      5-min Rain = 0
KBY1 201928Z 24012G17KT 23/M05 A2964 RMK A01 T02331053  RH  014%=      5-min Rain = 0
KBY1 201929Z 23011G16KT 23/M05 A2964 RMK A01 T02341050  RH  015%=      5-min Rain = 0
KBY1 201930Z 23011KT 24/M05 A2964 RMK A01 T02351050  RH  015%=      5-min Rain = 0
KBY1 201931Z 24011KT 24/M05 A2964 RMK A01 T02361050  RH  015%=      5-min Rain = 0
KBY1 201932Z 23011KT 24/M05 A2963 RMK A01 T02361049  RH  015%=      5-min Rain = 0
KBY1 201933Z 24010G16KT 24/M05 A2963 RMK A01 T02371050  RH  014%=      5-min Rain = 0
KBY1 201934Z 24012KT 24/M05 A2963 RMK A01 T02371052  RH  014%=      5-min Rain = 0
KBY1 201935Z 24011KT 24/M05 A2963 RMK A01 T02371052  RH  014%=      5-min Rain = 0
KBY1 201936Z 24010KT 24/M05 A2963 RMK A01 T02381048  RH  015%=      5-min Rain = 0
KBY1 201937Z 23010KT 24/M05 A2963 RMK A01 T02391047  RH  015%=      5-min Rain = 0
KBY1 201938Z 23008KT 24/M04 A2963 RMK A01 T02401044  RH  015%=      5-min Rain = 0
KBY1 201939Z 23013KT 24/M05 A2963 RMK A01 T02411045  RH  015%=      5-min Rain = 0
KBY1 201940Z 23014KT 24/M05 A2963 RMK A01 T02411051  RH  014%=      5-min Rain = 0
KBY1 201941Z 23013KT 24/M05 A2962 RMK A01 T02401053  RH  014%=      5-min Rain = 0
KBY1 201942Z 24014KT 24/M05 A2963 RMK A01 T02411051  RH  014%=      5-min Rain = 0
KBY1 201943Z 25013KT 24/M05 A2963 RMK A01 T02411050  RH  014%=      5-min Rain = 0
KBY1 201944Z 25010KT 24/M05 A2962 RMK A01 T02411049  RH  014%=      5-min Rain = 0
KBY1 201945Z 24009KT 24/M05 A2962 RMK A01 T02411047  RH  014%=      5-min Rain = 0
KBY1 201946Z 24011KT 24/M05 A2962 RMK A01 T02421046  RH  014%=      5-min Rain = 0
KBY1 201947Z 22012KT 24/M05 A2962 RMK A01 T02421046  RH  014%=      5-min Rain = 0
KBY1 201948Z 24013KT 24/M05 A2962 RMK A01 T02421049  RH  014%=      5-min Rain = 0
KBY1 201949Z 23009G14KT 24/M05 A2962 RMK A01 T02431046  RH  014%=      5-min Rain = 0
KBY1 201950Z 22011KT 24/M04 A2962 RMK A01 T02441043  RH  015%=      5-min Rain = 0
KBY1 201951Z 23011KT 25/M05 A2962 RMK A01 T02451048  RH  014%=      5-min Rain = 0
KBY1 201952Z 23008KT 25/M05 A2962 RMK A01 T02451047  RH  014%=      5-min Rain = 0
KBY1 201953Z 24010KT 24/M05 A2962 RMK A01 T02441045  RH  014%=      5-min Rain = 0
KBY1 201954Z 22008KT 24/M05 A2962 RMK A01 T02441047  RH  014%=      5-min Rain = 0
KBY1 201955Z 22009KT 25/M05 A2962 RMK A01 T02451046  RH  014%=      5-min Rain = 0
KBY1 201956Z 23012KT 25/M05 A2962 RMK A01 T02451046  RH  014%=      5-min Rain = 0
KBY1 201957Z 23009KT 25/M05 A2961 RMK A01 T02461046  RH  014%=      5-min Rain = 0
KBY1 201958Z 22010KT 25/M05 A2961 RMK A01 T02471046  RH  014%=      5-min Rain = 0
KBY1 201959Z 24011KT 25/M04 A2961 RMK A01 T02491042  RH  014%=      5-min Rain = 0
KBY1 202000Z 23012KT 25/M04 A2961 RMK A01 T02531040  RH  014%=      5-min Rain = 0
KBY1 202001Z 23010KT 26/M04 A2961 RMK A01 T02561040  RH  014%=      5-min Rain = 0
KBY1 202002Z 25010G17KT 26/M04 A2961 RMK A01 T02571040  RH  014%=      5-min Rain = 0
KBY1 202003Z 27014G19KT 26/M05 A2961 RMK A01 T02581047  RH  013%=      5-min Rain = 0
KBY1 202004Z 26016G22KT 26/M05 A2961 RMK A01 T02591052  RH  012%=      5-min Rain = 0
KBY1 202005Z 26012G18KT 26/M05 A2961 RMK A01 T02601051  RH  013%=      5-min Rain = 0
KBY1 202006Z 26014G21KT 26/M05 A2961 RMK A01 T02601053  RH  012%=      5-min Rain = 0
KBY1 202007Z 27016G23KT 26/M06 A2961 RMK A01 T02601058  RH  012%=      5-min Rain = 0
KBY1 202008Z 27016G21KT 26/M06 A2961 RMK A01 T02611058  RH  012%=      5-min Rain = 0
KBY1 202009Z 26016G21KT 27/M06 A2961 RMK A01 T02661055  RH  012%=      5-min Rain = 0
KBY1 202010Z 25011G16KT 27/M05 A2961 RMK A01 T02691049  RH  012%=      5-min Rain = 0
KBY1 202011Z 26014G22KT 27/M05 A2961 RMK A01 T02731048  RH  012%=      5-min Rain = 0
KBY1 202012Z 26020G25KT 27/M05 A296 RMK A01 T02731053  RH  011%=      5-min Rain = 0
KBY1 202013Z 26019G24KT 27/M06 A296 RMK A01 T02711059  RH  011%=      5-min Rain = 0
KBY1 202014Z 26021G27KT 27/M06 A296 RMK A01 T02691058  RH  011%=      5-min Rain = 0
KBY1 202015Z 27018KT 27/M06 A296 RMK A01 T02691058  RH  011%=      5-min Rain = 0
KBY1 202016Z 26018G24KT 27/M06 A296 RMK A01 T02681057  RH  011%=      5-min Rain = 0
KBY1 202017Z 27016G22KT 27/M06 A296 RMK A01 T02671057  RH  011%=      5-min Rain = 0
KBY1 202018Z 27019G25KT 27/M06 A296 RMK A01 T02671059  RH  011%=      5-min Rain = 0
KBY1 202019Z 27015G22KT 27/M06 A296 RMK A01 T02651059  RH  011%=      5-min Rain = 0
KBY1 202020Z 27013KT 27/M06 A296 RMK A01 T02661055  RH  012%=      5-min Rain = 0
KBY1 202021Z 27013KT 27/M06 A296 RMK A01 T02671057  RH  011%=      5-min Rain = 0
KBY1 202022Z 26013KT 27/M05 A296 RMK A01 T02681053  RH  012%=      5-min Rain = 0
KBY1 202023Z 26013G22KT 27/M05 A296 RMK A01 T02701049  RH  012%=      5-min Rain = 0
KBY1 202024Z 25017KT 27/M05 A296 RMK A01 T02721054  RH  011%=      5-min Rain = 0
KBY1 202025Z 25014KT 27/M05 A296 RMK A01 T02711054  RH  011%=      5-min Rain = 0
KBY1 202026Z 25019KT 27/M06 A296 RMK A01 T02711055  RH  011%=      5-min Rain = 0
KBY1 202027Z 25019KT 27/M06 A296 RMK A01 T02711057  RH  011%=      5-min Rain = 0
KBY1 202028Z 25020G25KT 27/M06 A296 RMK A01 T02691063  RH  011%=      5-min Rain = 0
KBY1 202029Z 26015G20KT 27/M07 A296 RMK A01 T02661065  RH  011%=      5-min Rain = 0
KBY1 202030Z 26015KT 27/M06 A296 RMK A01 T02651061  RH  011%=      5-min Rain = 0
KBY1 202031Z 26013KT 27/M06 A296 RMK A01 T02661059  RH  011%=      5-min Rain = 0
KBY1 202032Z 26011G18KT 27/M05 A296 RMK A01 T02681054  RH  012%=      5-min Rain = 0
KBY1 202033Z 26016KT 27/M05 A296 RMK A01 T02711053  RH  012%=      5-min Rain = 0
KBY1 202034Z 27013G22KT 27/M05 A296 RMK A01 T02711054  RH  011%=      5-min Rain = 0
KBY1 202035Z 26014G19KT 27/M05 A296 RMK A01 T02721051  RH  012%=      5-min Rain = 0
KBY1 202036Z 27021G29KT 27/M06 A2959 RMK A01 T02721056  RH  011%=      5-min Rain = 0
KBY1 202037Z 27020G27KT 27/M06 A2959 RMK A01 T02711056  RH  011%=      5-min Rain = 0
KBY1 202038Z 26019G25KT 27/M06 A2959 RMK A01 T02701057  RH  011%=      5-min Rain = 0
KBY1 202039Z 26020G25KT 27/M06 A296 RMK A01 T02681061  RH  011%=      5-min Rain = 0
KBY1 202040Z 26016G22KT 27/M06 A296 RMK A01 T02671061  RH  011%=      5-min Rain = 0
KBY1 202041Z 26016G21KT 27/M06 A2959 RMK A01 T02671058  RH  011%=      5-min Rain = 0
KBY1 202042Z 25014KT 27/M06 A296 RMK A01 T02681057  RH  011%=      5-min Rain = 0
KBY1 202043Z 26021KT 27/M06 A296 RMK A01 T02691055  RH  011%=      5-min Rain = 0
KBY1 202044Z 26021KT 27/M06 A296 RMK A01 T02701062  RH  011%=      5-min Rain = 0
KBY1 202045Z 25017KT 27/M06 A296 RMK A01 T02681063  RH  011%=      5-min Rain = 0
KBY1 202046Z 26015KT 27/M06 A296 RMK A01 T02681061  RH  011%=      5-min Rain = 0
KBY1 202047Z 26017G26KT 27/M06 A296 RMK A01 T02681057  RH  011%=      5-min Rain = 0
KBY1 202048Z 26024KT 27/M06 A296 RMK A01 T02701062  RH  011%=      5-min Rain = 0
KBY1 202049Z 26024KT 27/M06 A296 RMK A01 T02691064  RH  011%=      5-min Rain = 0
KBY1 202050Z 25026KT 27/M07 A296 RMK A01 T02671070  RH  010%=      5-min Rain = 0
KBY1 202051Z 26026G32KT 27/M07 A296 RMK A01 T02651073  RH  010%=      5-min Rain = 0
KBY1 202052Z 26020G25KT 27/M07 A296 RMK A01 T02651069  RH  011%=      5-min Rain = 0
KBY1 202053Z 27025G31KT 27/M07 A296 RMK A01 T02651069  RH  011%=      5-min Rain = 0
KBY1 202054Z 28022G28KT 26/M07 A296 RMK A01 T02641069  RH  011%=      5-min Rain = 0
KBY1 202055Z 27023G30KT 27/M07 A296 RMK A01 T02651067  RH  011%=      5-min Rain = 0
KBY1 202056Z 25021G26KT 27/M06 A2961 RMK A01 T02651064  RH  011%=      5-min Rain = 0
KBY1 202057Z 25017G23KT 27/M06 A2961 RMK A01 T02661064  RH  011%=      5-min Rain = 0
KBY1 202058Z 25021KT 27/M06 A296 RMK A01 T02671062  RH  011%=      5-min Rain = 0
KBY1 202059Z 27019KT 27/M06 A2961 RMK A01 T02671063  RH  011%=      5-min Rain = 0
KBY1 202100Z 26016G24KT 27/M07 A2961 RMK A01 T02671065  RH  011%=      5-min Rain = 0
KBY1 202101Z 27021G27KT 27/M07 A2961 RMK A01 T02671074  RH  010%=      5-min Rain = 0
KBY1 202102Z 27026G34KT 27/M08 A2961 RMK A01 T02661083  RH  009%=      5-min Rain = 0
KBY1 202103Z 26023G30KT 27/M08 A2961 RMK A01 T02661083  RH  009%=      5-min Rain = 0
KBY1 202104Z 25023G31KT 26/M09 A2961 RMK A01 T02641088  RH  009%=      5-min Rain = 0
KBY1 202105Z 26019KT 26/M09 A2961 RMK A01 T02631089  RH  009%=      5-min Rain = 0
KBY1 202106Z 27019G26KT 26/M09 A2961 RMK A01 T02631087  RH  009%=      5-min Rain = 0
KBY1 202107Z 26018G25KT 26/M08 A2961 RMK A01 T02641082  RH  010%=      5-min Rain = 0
KBY1 202108Z 26021G28KT 27/M08 A2961 RMK A01 T02661076  RH  010%=      5-min Rain = 0
KBY1 202109Z 26022G31KT 27/M08 A2961 RMK A01 T02661079  RH  010%=      5-min Rain = 0
KBY1 202110Z 26022G28KT 26/M08 A2961 RMK A01 T02631082  RH  010%=      5-min Rain = 0
KBY1 202111Z 27023KT 26/M08 A2961 RMK A01 T02611084  RH  010%=      5-min Rain = 0
KBY1 202112Z 27022G28KT 26/M08 A2961 RMK A01 T02601084  RH  010%=      5-min Rain = 0
KBY1 202113Z 26019G26KT 26/M08 A2961 RMK A01 T02591083  RH  010%=      5-min Rain = 0
KBY1 202114Z 26017G24KT 26/M08 A2961 RMK A01 T02591083  RH  010%=      5-min Rain = 0
KBY1 202115Z 27017G27KT 26/M08 A2961 RMK A01 T02591081  RH  010%=      5-min Rain = 0
KBY1 202116Z 27020KT 26/M08 A2961 RMK A01 T02591084  RH  010%=      5-min Rain = 0
KBY1 202117Z 27023G28KT 26/M09 A2961 RMK A01 T02601087  RH  009%=      5-min Rain = 0
KBY1 202118Z 27024G35KT 26/M09 A2961 RMK A01 T02591091  RH  009%=      5-min Rain = 0
KBY1 202119Z 27016KT 26/M09 A2961 RMK A01 T02571088  RH  010%=      5-min Rain = 0
KBY1 202120Z 26018G26KT 26/M08 A2961 RMK A01 T02581083  RH  010%=      5-min Rain = 0
KBY1 202121Z 26020G26KT 26/M09 A2961 RMK A01 T02601086  RH  010%=      5-min Rain = 0
KBY1 202122Z 26021G27KT 26/M09 A2961 RMK A01 T02591085  RH  010%=      5-min Rain = 0
KBY1 202123Z 27019G24KT 26/M08 A2961 RMK A01 T02591084  RH  010%=      5-min Rain = 0
KBY1 202124Z 26020G27KT 26/M08 A2961 RMK A01 T02591084  RH  010%=      5-min Rain = 0
KBY1 202125Z 27019G27KT 26/M09 A2961 RMK A01 T02591087  RH  010%=      5-min Rain = 0
KBY1 202126Z 27023G30KT 26/M09 A2961 RMK A01 T02581089  RH  009%=      5-min Rain = 0
KBY1 202127Z 26023G28KT 26/M09 A2961 RMK A01 T02581087  RH  010%=      5-min Rain = 0
KBY1 202128Z 26021G27KT 26/M08 A2961 RMK A01 T02581083  RH  010%=      5-min Rain = 0
KBY1 202129Z 27023G30KT 26/M09 A2961 RMK A01 T02591085  RH  010%=      5-min Rain = 0
KBY1 202130Z 27020KT 26/M08 A2962 RMK A01 T02581082  RH  010%=      5-min Rain = 0
KBY1 202131Z 27021G28KT 26/M08 A2961 RMK A01 T02581083  RH  010%=      5-min Rain = 0
KBY1 202132Z 27018G26KT 26/M08 A2961 RMK A01 T02581082  RH  010%=      5-min Rain = 0
KBY1 202133Z 26017KT 26/M08 A2961 RMK A01 T02581078  RH  010%=      5-min Rain = 0
KBY1 202134Z 26026KT 26/M08 A2961 RMK A01 T02591081  RH  010%=      5-min Rain = 0
KBY1 202135Z 25021G26KT 26/M08 A2961 RMK A01 T02581084  RH  010%=      5-min Rain = 0
KBY1 202136Z 27020G25KT 26/M08 A2962 RMK A01 T02571084  RH  010%=      5-min Rain = 0
KBY1 202137Z 26021G28KT 26/M08 A2962 RMK A01 T02571082  RH  010%=      5-min Rain = 0
KBY1 202138Z 27018KT 26/M08 A2962 RMK A01 T02571080  RH  010%=      5-min Rain = 0
KBY1 202139Z 27023G29KT 26/M08 A2962 RMK A01 T02571082  RH  010%=      5-min Rain = 0
KBY1 202140Z 27018G25KT 26/M08 A2962 RMK A01 T02571081  RH  010%=      5-min Rain = 0
KBY1 202141Z 26023G29KT 26/M08 A2962 RMK A01 T02571081  RH  010%=      5-min Rain = 0
KBY1 202142Z 26019G24KT 26/M08 A2962 RMK A01 T02571081  RH  010%=      5-min Rain = 0
KBY1 202143Z 26021G28KT 26/M08 A2962 RMK A01 T02571080  RH  010%=      5-min Rain = 0
KBY1 202144Z 26019G25KT 26/M08 A2962 RMK A01 T02571080  RH  010%=      5-min Rain = 0
KBY1 202145Z 26021G28KT 26/M08 A2962 RMK A01 T02581081  RH  010%=      5-min Rain = 0
KBY1 202146Z 28016G24KT 26/M08 A2962 RMK A01 T02571080  RH  010%=      5-min Rain = 0
KBY1 202147Z 30018KT 26/M08 A2963 RMK A01 T02581077  RH  010%=      5-min Rain = 0
KBY1 202148Z 35007G15KT 26/M06 A2963 RMK A01 T02551062  RH  012%=      5-min Rain = 0
KBY1 202149Z 02007KT 25/M05 A2963 RMK A01 T02491050  RH  013%=      5-min Rain = 0
KBY1 202150Z 05011KT 24/M03 A2962 RMK A01 T02431032  RH  016%=      5-min Rain = 0
KBY1 202151Z 04014KT 24/M03 A2962 RMK A01 T02371026  RH  017%=      5-min Rain = 0
KBY1 202152Z 03017KT 23/M02 A2963 RMK A01 T02321024  RH  018%=      5-min Rain = 0
KBY1 202153Z 01013KT 23/M02 A2963 RMK A01 T02271023  RH  019%=      5-min Rain = 0
KBY1 202154Z 00010G16KT 22/M02 A2964 RMK A01 T02231022  RH  019%=      5-min Rain = 0
KBY1 202155Z 01015KT 22/M02 A2964 RMK A01 T02211022  RH  020%=      5-min Rain = 0
KBY1 202156Z 01014G19KT 22/M03 A2964 RMK A01 T02181025  RH  019%=      5-min Rain = 0
KBY1 202157Z 02017KT 22/M03 A2964 RMK A01 T02151026  RH  020%=      5-min Rain = 0
KBY1 202158Z 03017KT 21/M02 A2964 RMK A01 T02131023  RH  020%=      5-min Rain = 0
KBY1 202159Z 03017G24KT 21/M02 A2964 RMK A01 T02131023  RH  020%=      5-min Rain = 0
KBY1 202200Z 03025G30KT 21/M02 A2963 RMK A01 T02121023  RH  020%=      5-min Rain = 0
KBY1 202201Z 03020KT 21/M03 A2963 RMK A01 T02111025  RH  020%=      5-min Rain = 0
KBY1 202202Z 03019KT 21/M02 A2963 RMK A01 T02101024  RH  021%=      5-min Rain = 0
KBY1 202203Z 03019KT 21/M03 A2963 RMK A01 T02111025  RH  020%=      5-min Rain = 0
KBY1 202204Z 03020KT 21/M03 A2964 RMK A01 T02111025  RH  020%=      5-min Rain = 0
KBY1 202205Z 03016KT 21/M02 A2964 RMK A01 T02111024  RH  021%=      5-min Rain = 0
KBY1 202206Z 03013KT 21/M02 A2964 RMK A01 T02111023  RH  021%=      5-min Rain = 0
KBY1 202207Z 03014KT 21/M02 A2964 RMK A01 T02121023  RH  020%=      5-min Rain = 0
KBY1 202208Z 04013G18KT 21/M02 A2964 RMK A01 T02121023  RH  020%=      5-min Rain = 0
KBY1 202209Z 03012KT 21/M02 A2965 RMK A01 T02131020  RH  021%=      5-min Rain = 0
KBY1 202210Z 03013KT 22/M02 A2965 RMK A01 T02151020  RH  021%=      5-min Rain = 0
KBY1 202211Z 03016KT 22/M02 A2965 RMK A01 T02151022  RH  020%=      5-min Rain = 0
KBY1 202212Z 03016KT 21/M03 A2965 RMK A01 T02141026  RH  020%=      5-min Rain = 0
KBY1 202213Z 02014KT 21/M02 A2965 RMK A01 T02121024  RH  020%=      5-min Rain = 0
KBY1 202214Z 03014G19KT 21/M02 A2965 RMK A01 T02121023  RH  021%=      5-min Rain = 0
KBY1 202215Z 03014KT 21/M02 A2965 RMK A01 T02131023  RH  020%=      5-min Rain = 0
KBY1 202216Z 03013KT 21/M02 A2965 RMK A01 T02131021  RH  021%=      5-min Rain = 0
KBY1 202217Z 03016KT 21/M02 A2965 RMK A01 T02121020  RH  021%=      5-min Rain = 0
KBY1 202218Z 04016KT 21/M02 A2965 RMK A01 T02121021  RH  021%=      5-min Rain = 0
KBY1 202219Z 03018KT 21/M02 A2965 RMK A01 T02101021  RH  021%=      5-min Rain = 0
KBY1 202220Z 03018KT 21/M02 A2965 RMK A01 T02101022  RH  021%=      5-min Rain = 0
KBY1 202221Z 03017KT 21/M02 A2966 RMK A01 T02081024  RH  021%=      5-min Rain = 0
KBY1 202222Z 03014KT 21/M02 A2966 RMK A01 T02071023  RH  021%=      5-min Rain = 0
KBY1 202223Z 04015KT 21/M02 A2966 RMK A01 T02071022  RH  021%=      5-min Rain = 0
KBY1 202224Z 03015KT 21/M02 A2966 RMK A01 T02061022  RH  021%=      5-min Rain = 0
KBY1 202225Z 04014KT 21/M02 A2966 RMK A01 T02061021  RH  022%=      5-min Rain = 0
KBY1 202226Z 04014KT 21/M02 A2966 RMK A01 T02061020  RH  022%=      5-min Rain = 0
KBY1 202227Z 03016KT 21/M02 A2966 RMK A01 T02061022  RH  022%=      5-min Rain = 0
KBY1 202228Z 04013KT 21/M02 A2966 RMK A01 T02051022  RH  022%=      5-min Rain = 0
KBY1 202229Z 03013KT 20/M02 A2966 RMK A01 T02041021  RH  022%=      5-min Rain = 0
KBY1 202230Z 04012KT 20/M02 A2966 RMK A01 T02041022  RH  022%=      5-min Rain = 0
KBY1 202231Z 03014KT 20/M02 A2966 RMK A01 T02041022  RH  022%=      5-min Rain = 0
KBY1 202232Z 03013KT 20/M02 A2966 RMK A01 T02041022  RH  022%=      5-min Rain = 0
KBY1 202233Z 03014KT 20/M02 A2966 RMK A01 T02041022  RH  022%=      5-min Rain = 0
KBY1 202234Z 03015KT 20/M02 A2966 RMK A01 T02041023  RH  021%=      5-min Rain = 0
KBY1 202235Z 03013KT 20/M02 A2966 RMK A01 T02041024  RH  021%=      5-min Rain = 0
KBY1 202236Z 03012KT 20/M02 A2966 RMK A01 T02031023  RH  022%=      5-min Rain = 0
KBY1 202237Z 03013KT 20/M02 A2966 RMK A01 T02031023  RH  022%=      5-min Rain = 0
KBY1 202238Z 03015KT 20/M03 A2966 RMK A01 T02021025  RH  021%=      5-min Rain = 0
KBY1 202239Z 03013KT 20/M03 A2967 RMK A01 T02011026  RH  021%=      5-min Rain = 0
KBY1 202240Z 03014KT 20/M03 A2967 RMK A01 T02011025  RH  022%=      5-min Rain = 0
KBY1 202241Z 03014KT 20/M03 A2967 RMK A01 T02011026  RH  021%=      5-min Rain = 0
KBY1 202242Z 04014KT 20/M03 A2967 RMK A01 T02011026  RH  021%=      5-min Rain = 0
KBY1 202243Z 03013KT 20/M03 A2967 RMK A01 T02011027  RH  021%=      5-min Rain = 0
KBY1 202244Z 03014KT 20/M03 A2967 RMK A01 T02011026  RH  021%=      5-min Rain = 0
KBY1 202245Z 04015KT 20/M03 A2967 RMK A01 T02021027  RH  021%=      5-min Rain = 0
KBY1 202246Z 03014KT 20/M03 A2967 RMK A01 T02021028  RH  021%=      5-min Rain = 0
KBY1 202247Z 04012KT 20/M03 A2967 RMK A01 T02021028  RH  021%=      5-min Rain = 0
KBY1 202248Z 04010KT 20/M03 A2967 RMK A01 T02021026  RH  021%=      5-min Rain = 0
KBY1 202249Z 04010KT 20/M03 A2967 RMK A01 T02021025  RH  021%=      5-min Rain = 0
KBY1 202250Z 04011KT 20/M02 A2967 RMK A01 T02031023  RH  022%=      5-min Rain = 0
KBY1 202251Z 04009KT 20/M02 A2967 RMK A01 T02031024  RH  021%=      5-min Rain = 0
KBY1 202252Z 03010KT 20/M02 A2967 RMK A01 T02031023  RH  022%=      5-min Rain = 0
KBY1 202253Z 02012KT 20/M03 A2968 RMK A01 T02031025  RH  021%=      5-min Rain = 0
KBY1 202254Z 03011KT 20/M03 A2968 RMK A01 T02031026  RH  021%=      5-min Rain = 0
KBY1 202255Z 02012KT 20/M03 A2968 RMK A01 T02031027  RH  021%=      5-min Rain = 0
KBY1 202256Z 03012KT 20/M03 A2968 RMK A01 T02021027  RH  021%=      5-min Rain = 0
KBY1 202257Z 03010KT 20/M03 A2968 RMK A01 T02011027  RH  021%=      5-min Rain = 0
KBY1 202258Z 03009KT 20/M03 A2968 RMK A01 T02001027  RH  021%=      5-min Rain = 0
KBY1 202259Z 03011KT 20/M03 A2968 RMK A01 T01991027  RH  022%=      5-min Rain = 0
KBY1 202300Z 03010KT 20/M03 A2968 RMK A01 T01981027  RH  022%=      5-min Rain = 0
KBY1 202301Z 02011KT 20/M03 A2968 RMK A01 T01971027  RH  022%=      5-min Rain = 0
KBY1 202302Z 03009KT 20/M03 A2968 RMK A01 T01961027  RH  022%=      5-min Rain = 0
KBY1 202303Z 03008KT 20/M03 A2968 RMK A01 T01951026  RH  022%=      5-min Rain = 0
KBY1 202304Z 04008G13KT 20/M03 A2969 RMK A01 T01951025  RH  022%=      5-min Rain = 0
KBY1 202305Z 05009KT 20/M03 A2969 RMK A01 T01951026  RH  022%=      5-min Rain = 0
KBY1 202306Z 04008KT 19/M03 A2969 RMK A01 T01941025  RH  023%=      5-min Rain = 0
KBY1 202307Z 03010KT 19/M03 A2969 RMK A01 T01941025  RH  023%=      5-min Rain = 0
KBY1 202308Z 03012KT 19/M03 A2969 RMK A01 T01931026  RH  023%=      5-min Rain = 0
KBY1 202309Z 03012KT 19/M03 A2969 RMK A01 T01911027  RH  023%=      5-min Rain = 0
KBY1 202310Z 03011KT 19/M03 A2969 RMK A01 T01911027  RH  023%=      5-min Rain = 0
KBY1 202311Z 03013KT 19/M03 A2969 RMK A01 T01901026  RH  023%=      5-min Rain = 0
KBY1 202312Z 02012KT 19/M03 A297 RMK A01 T01891028  RH  023%=      5-min Rain = 0
KBY1 202313Z 03010KT 19/M03 A297 RMK A01 T01881027  RH  023%=      5-min Rain = 0
KBY1 202314Z 03010KT 19/M03 A297 RMK A01 T01881026  RH  023%=      5-min Rain = 0
KBY1 202315Z 03009KT 19/M03 A297 RMK A01 T01871026  RH  023%=      5-min Rain = 0
KBY1 202316Z 03011KT 19/M03 A297 RMK A01 T01871025  RH  024%=      5-min Rain = 0
KBY1 202317Z 03012KT 19/M03 A2971 RMK A01 T01861027  RH  023%=      5-min Rain = 0
KBY1 202318Z 03014KT 19/M03 A2971 RMK A01 T01851027  RH  023%=      5-min Rain = 0
KBY1 202319Z 03013KT 19/M03 A2971 RMK A01 T01851028  RH  023%=      5-min Rain = 0
KBY1 202320Z 03013KT 18/M03 A2971 RMK A01 T01841029  RH  023%=      5-min Rain = 0
KBY1 202321Z 04012KT 18/M03 A2971 RMK A01 T01831028  RH  024%=      5-min Rain = 0
KBY1 202322Z 04012KT 18/M03 A2971 RMK A01 T01821029  RH  024%=      5-min Rain = 0
KBY1 202323Z 03011KT 18/M03 A2972 RMK A01 T01821029  RH  024%=      5-min Rain = 0
KBY1 202324Z 03010KT 18/M03 A2972 RMK A01 T01821028  RH  024%=      5-min Rain = 0
KBY1 202325Z 02010KT 18/M03 A2972 RMK A01 T01821028  RH  024%=      5-min Rain = 0
KBY1 202326Z 03010G16KT 18/M03 A2972 RMK A01 T01811028  RH  024%=      5-min Rain = 0
KBY1 202327Z 03013KT 18/M03 A2972 RMK A01 T01811030  RH  024%=      5-min Rain = 0
KBY1 202328Z 02011KT 18/M03 A2972 RMK A01 T01801031  RH  023%=      5-min Rain = 0
KBY1 202329Z 02009G15KT 18/M03 A2972 RMK A01 T01791032  RH  024%=      5-min Rain = 0
KBY1 202330Z 02011KT 18/M03 A2972 RMK A01 T01791032  RH  024%=      5-min Rain = 0
KBY1 202331Z 03010KT 18/M03 A2972 RMK A01 T01781033  RH  023%=      5-min Rain = 0
KBY1 202332Z 03009KT 18/M03 A2972 RMK A01 T01781032  RH  024%=      5-min Rain = 0
KBY1 202333Z 03008KT 18/M03 A2972 RMK A01 T01781032  RH  024%=      5-min Rain = 0
KBY1 202334Z 03008KT 18/M03 A2972 RMK A01 T01771031  RH  024%=      5-min Rain = 0
KBY1 202335Z 03008KT 18/M03 A2972 RMK A01 T01761032  RH  024%=      5-min Rain = 0
KBY1 202336Z 02009KT 18/M03 A2972 RMK A01 T01761033  RH  024%=      5-min Rain = 0
KBY1 202337Z 03009KT 18/M03 A2972 RMK A01 T01751033  RH  024%=      5-min Rain = 0
KBY1 202338Z 02007KT 18/M03 A2972 RMK A01 T01751034  RH  024%=      5-min Rain = 0
KBY1 202339Z 02008KT 17/M03 A2972 RMK A01 T01741033  RH  024%=      5-min Rain = 0
KBY1 202340Z 02008KT 17/M03 A2973 RMK A01 T01741034  RH  024%=      5-min Rain = 0
KBY1 202341Z 02007KT 17/M03 A2973 RMK A01 T01741034  RH  024%=      5-min Rain = 0
KBY1 202342Z 03008KT 17/M03 A2973 RMK A01 T01731034  RH  024%=      5-min Rain = 0
KBY1 202343Z 03008KT 17/M03 A2973 RMK A01 T01721034  RH  024%=      5-min Rain = 0
KBY1 202344Z 03007KT 17/M04 A2973 RMK A01 T01721035  RH  024%=      5-min Rain = 0
KBY1 202345Z 03007KT 17/M04 A2973 RMK A01 T01711035  RH  024%=      5-min Rain = 0
KBY1 202346Z 03008KT 17/M04 A2973 RMK A01 T01711035  RH  024%=      5-min Rain = 0
KBY1 202347Z 02007KT 17/M04 A2974 RMK A01 T01701035  RH  024%=      5-min Rain = 0
KBY1 202348Z 03005KT 17/M04 A2974 RMK A01 T01701035  RH  024%=      5-min Rain = 0
KBY1 202349Z 03005KT 17/M03 A2974 RMK A01 T01691033  RH  025%=      5-min Rain = 0
KBY1 202350Z 03006KT 17/M03 A2974 RMK A01 T01681033  RH  025%=      5-min Rain = 0
KBY1 202351Z 03005KT 17/M03 A2974 RMK A01 T01671034  RH  025%=      5-min Rain = 0
KBY1 202352Z 03005KT 17/M03 A2974 RMK A01 T01661033  RH  025%=      5-min Rain = 0
KBY1 202353Z 03006KT 17/M03 A2974 RMK A01 T01651033  RH  026%=      5-min Rain = 0
KBY1 202354Z 03006KT 16/M03 A2974 RMK A01 T01641034  RH  025%=      5-min Rain = 0
KBY1 202355Z 03006KT 16/M03 A2974 RMK A01 T01641033  RH  026%=      5-min Rain = 0
KBY1 202356Z 03005KT 16/M03 A2975 RMK A01 T01641033  RH  026%=      5-min Rain = 0
KBY1 202357Z 03006KT 16/M03 A2975 RMK A01 T01631033  RH  026%=      5-min Rain = 0
KBY1 202358Z 02005KT 16/M03 A2975 RMK A01 T01621033  RH  026%=      5-min Rain = 0
KBY1 202359Z 03006KT 16/M03 A2975 RMK A01 T01611033  RH  026%=      5-min Rain = 0
KBY1 210000Z 03006KT 16/M03 A2975 RMK A01 T01611033  RH  026%=      5-min Rain = 0
KBY1 210001Z 03004KT 16/M03 A2975 RMK A01 T01611033  RH  026%=      5-min Rain = 0
KBY1 210002Z 02004KT 16/M03 A2975 RMK A01 T01601032  RH  026%=      5-min Rain = 0
KBY1 210003Z 01003KT 16/M03 A2975 RMK A01 T01591032  RH  027%=      5-min Rain = 0
KBY1 210004Z 02003KT 16/M03 A2975 RMK A01 T01591033  RH  027%=      5-min Rain = 0
KBY1 210005Z 02003KT 16/M03 A2975 RMK A01 T01591032  RH  027%=      5-min Rain = 0
KBY1 210006Z 02003KT 16/M03 A2975 RMK A01 T01581033  RH  027%=      5-min Rain = 0
KBY1 210007Z 03002KT 16/M03 A2976 RMK A01 T01571033  RH  027%=      5-min Rain = 0
KBY1 210008Z 02002KT 16/M03 A2976 RMK A01 T01561033  RH  027%=      5-min Rain = 0
KBY1 210009Z 02001KT 16/M03 A2976 RMK A01 T01561033  RH  027%=      5-min Rain = 0
KBY1 210010Z 03001KT 16/M03 A2976 RMK A01 T01551033  RH  027%=      5-min Rain = 0
KBY1 210011Z 02002KT 15/M03 A2976 RMK A01 T01541033  RH  027%=      5-min Rain = 0
KBY1 210012Z 02002KT 15/M03 A2976 RMK A01 T01531033  RH  028%=      5-min Rain = 0
KBY1 210013Z 03002KT 15/M03 A2976 RMK A01 T01531032  RH  028%=      5-min Rain = 0
KBY1 210014Z 03002KT 15/M03 A2976 RMK A01 T01511033  RH  028%=      5-min Rain = 0
KBY1 210015Z 04001KT 15/M03 A2976 RMK A01 T01511033  RH  028%=      5-min Rain = 0
KBY1 210016Z 03000KT 15/M03 A2976 RMK A01 T01501033  RH  028%=      5-min Rain = 0
KBY1 210017Z 00000KT 15/M03 A2976 RMK A01 T01491032  RH  029%=      5-min Rain = 0
KBY1 210018Z 00000KT 15/M03 A2976 RMK A01 T01471027  RH  030%=      5-min Rain = 0
KBY1 210019Z 20000KT 14/M03 A2976 RMK A01 T01421027  RH  031%=      5-min Rain = 0
KBY1 210020Z 21002KT 14/M03 A2976 RMK A01 T01391028  RH  031%=      5-min Rain = 0
KBY1 210021Z 23002KT 14/M03 A2977 RMK A01 T01361029  RH  032%=      5-min Rain = 0
KBY1 210022Z 22002KT 13/M03 A2977 RMK A01 T01341031  RH  032%=      5-min Rain = 0
KBY1 210023Z 22003KT 13/M03 A2977 RMK A01 T01341031  RH  032%=      5-min Rain = 0
KBY1 210024Z 23003KT 13/M03 A2977 RMK A01 T01321028  RH  033%=      5-min Rain = 0
KBY1 210025Z 24002KT 13/M03 A2977 RMK A01 T01311031  RH  032%=      5-min Rain = 0
KBY1 210026Z 25002KT 13/M03 A2977 RMK A01 T01321031  RH  032%=      5-min Rain = 0
KBY1 210027Z 34001KT 13/M03 A2977 RMK A01 T01301025  RH  034%=      5-min Rain = 0
KBY1 210028Z 31000KT 13/M03 A2977 RMK A01 T01251026  RH  035%=      5-min Rain = 0
KBY1 210029Z 26000KT 12/M03 A2977 RMK A01 T01241026  RH  035%=      5-min Rain = 0
KBY1 210030Z 25001KT 13/M03 A2977 RMK A01 T01251032  RH  033%=      5-min Rain = 0
KBY1 210031Z 26001KT 13/M03 A2977 RMK A01 T01281026  RH  034%=      5-min Rain = 0
KBY1 210032Z 25000KT 13/M03 A2978 RMK A01 T01261028  RH  034%=      5-min Rain = 0
KBY1 210033Z 00000KT 13/M03 A2978 RMK A01 T01251031  RH  033%=      5-min Rain = 0
KBY1 210034Z 00000KT 13/M03 A2978 RMK A01 T01261029  RH  034%=      5-min Rain = 0
KBY1 210035Z 00000KT 13/M03 A2978 RMK A01 T01251028  RH  034%=      5-min Rain = 0
KBY1 210036Z 29000KT 13/M03 A2978 RMK A01 T01251030  RH  034%=      5-min Rain = 0
KBY1 210037Z 29001KT 13/M03 A2978 RMK A01 T01251031  RH  034%=      5-min Rain = 0
KBY1 210038Z 32002KT 13/M03 A2978 RMK A01 T01261030  RH  034%=      5-min Rain = 0
KBY1 210039Z 32002KT 13/M03 A2978 RMK A01 T01271033  RH  033%=      5-min Rain = 0
KBY1 210040Z 34002KT 13/M03 A2978 RMK A01 T01311033  RH  032%=      5-min Rain = 0
KBY1 210041Z 33001KT 14/M03 A2979 RMK A01 T01351033  RH  031%=      5-min Rain = 0
KBY1 210042Z 33002KT 14/M03 A2979 RMK A01 T01351031  RH  031%=      5-min Rain = 0
KBY1 210043Z 34002KT 14/M03 A2979 RMK A01 T01351034  RH  031%=      5-min Rain = 0
KBY1 210044Z 36003KT 14/M03 A2979 RMK A01 T01371034  RH  030%=      5-min Rain = 0
KBY1 210045Z 35003KT 14/M03 A2979 RMK A01 T01361031  RH  031%=      5-min Rain = 0
KBY1 210046Z 00003KT 13/M03 A2979 RMK A01 T01311031  RH  032%=      5-min Rain = 0
KBY1 210047Z 36003KT 13/M03 A2979 RMK A01 T01281031  RH  033%=      5-min Rain = 0
KBY1 210048Z 35004KT 13/M03 A2979 RMK A01 T01271029  RH  034%=      5-min Rain = 0
KBY1 210049Z 36004KT 13/M03 A2979 RMK A01 T01251027  RH  035%=      5-min Rain = 0
KBY1 210050Z 36004KT 12/M03 A2979 RMK A01 T01231030  RH  034%=      5-min Rain = 0
KBY1 210051Z 36005KT 12/M03 A2979 RMK A01 T01231030  RH  034%=      5-min Rain = 0
KBY1 210052Z 00004KT 12/M03 A2979 RMK A01 T01241032  RH  034%=      5-min Rain = 0
KBY1 210053Z 36005KT 13/M03 A2979 RMK A01 T01251031  RH  034%=      5-min Rain = 0
KBY1 210054Z 01004KT 13/M03 A2979 RMK A01 T01251033  RH  033%=      5-min Rain = 0
KBY1 210055Z 35003KT 13/M03 A2979 RMK A01 T01251032  RH  033%=      5-min Rain = 0
KBY1 210056Z 00003KT 13/M03 A298 RMK A01 T01251033  RH  033%=      5-min Rain = 0
KBY1 210057Z 35003KT 13/M03 A298 RMK A01 T01261033  RH  033%=      5-min Rain = 0
KBY1 210058Z 35003KT 13/M03 A298 RMK A01 T01261032  RH  033%=      5-min Rain = 0
KBY1 210059Z 01003KT 13/M03 A298 RMK A01 T01261032  RH  033%=      5-min Rain = 0
KBY1 210100Z 01003KT 13/M03 A298 RMK A01 T01251031  RH  034%=      5-min Rain = 0
KBY1 210101Z 02004KT 13/M03 A298 RMK A01 T01251033  RH  033%=      5-min Rain = 0
KBY1 210102Z 01003KT 13/M03 A298 RMK A01 T01251031  RH  033%=      5-min Rain = 0
KBY1 210103Z 34003KT 13/M03 A2981 RMK A01 T01251031  RH  034%=      5-min Rain = 0
KBY1 210104Z 34003KT 12/M03 A2981 RMK A01 T01231033  RH  034%=      5-min Rain = 0
KBY1 210105Z 33004KT 12/M03 A2981 RMK A01 T01231032  RH  034%=      5-min Rain = 0
KBY1 210106Z 35005KT 12/M03 A2981 RMK A01 T01201030  RH  035%=      5-min Rain = 0
KBY1 210107Z 00003KT 12/M03 A2981 RMK A01 T01191030  RH  035%=      5-min Rain = 0
KBY1 210108Z 00003KT 12/M03 A2981 RMK A01 T01191030  RH  035%=      5-min Rain = 0
KBY1 210109Z 36003KT 12/M03 A2981 RMK A01 T01181028  RH  036%=      5-min Rain = 0
KBY1 210110Z 00003KT 12/M03 A2981 RMK A01 T01151026  RH  037%=      5-min Rain = 0
KBY1 210111Z 00002KT 11/M02 A2981 RMK A01 T01101023  RH  039%=      5-min Rain = 0
KBY1 210112Z 36001KT 11/M02 A2981 RMK A01 T01071024  RH  040%=      5-min Rain = 0
KBY1 210113Z 33001KT 11/M03 A2981 RMK A01 T01051025  RH  040%=      5-min Rain = 0
KBY1 210114Z 31001KT 10/M02 A2982 RMK A01 T01031023  RH  041%=      5-min Rain = 0
KBY1 210115Z 28001KT 10/M03 A2982 RMK A01 T00981028  RH  041%=      5-min Rain = 0
KBY1 210116Z 27001KT 09/M03 A2982 RMK A01 T00941029  RH  042%=      5-min Rain = 0
KBY1 210117Z 27001KT 09/M03 A2982 RMK A01 T00921030  RH  042%=      5-min Rain = 0
KBY1 210118Z 30002KT 09/M03 A2982 RMK A01 T00941029  RH  042%=      5-min Rain = 0
KBY1 210119Z 31003KT 10/M03 A2982 RMK A01 T00951026  RH  043%=      5-min Rain = 0
KBY1 210120Z 32003KT 10/M03 A2982 RMK A01 T00961027  RH  042%=      5-min Rain = 0
KBY1 210121Z 32004KT 10/M03 A2982 RMK A01 T00971027  RH  042%=      5-min Rain = 0
KBY1 210122Z 33004KT 10/M03 A2982 RMK A01 T00991026  RH  042%=      5-min Rain = 0
KBY1 210123Z 33004KT 10/M03 A2982 RMK A01 T01001026  RH  041%=      5-min Rain = 0
KBY1 210124Z 33004KT 10/M03 A2982 RMK A01 T01001028  RH  040%=      5-min Rain = 0
KBY1 210125Z 33004KT 10/M03 A2982 RMK A01 T01021028  RH  040%=      5-min Rain = 0
KBY1 210126Z 33004KT 10/M03 A2982 RMK A01 T01031027  RH  040%=      5-min Rain = 0
KBY1 210127Z 32004KT 10/M03 A2982 RMK A01 T01031028  RH  040%=      5-min Rain = 0
KBY1 210128Z 30005KT 10/M03 A2982 RMK A01 T01031031  RH  039%=      5-min Rain = 0
KBY1 210129Z 30005KT 10/M03 A2983 RMK A01 T01041032  RH  038%=      5-min Rain = 0
KBY1 210130Z 31006KT 11/M03 A2983 RMK A01 T01061032  RH  038%=      5-min Rain = 0
KBY1 210131Z 31006KT 11/M03 A2983 RMK A01 T01091032  RH  037%=      5-min Rain = 0
KBY1 210132Z 32005KT 11/M03 A2983 RMK A01 T01101030  RH  037%=      5-min Rain = 0
KBY1 210133Z 32005KT 11/M03 A2983 RMK A01 T01081030  RH  038%=      5-min Rain = 0
KBY1 210134Z 32004KT 11/M03 A2983 RMK A01 T01071030  RH  038%=      5-min Rain = 0
KBY1 210135Z 33002KT 11/M03 A2983 RMK A01 T01061030  RH  039%=      5-min Rain = 0
KBY1 210136Z 34003KT 11/M03 A2983 RMK A01 T01071030  RH  038%=      5-min Rain = 0
KBY1 210137Z 35002KT 11/M03 A2983 RMK A01 T01081030  RH  038%=      5-min Rain = 0
KBY1 210138Z 33003KT 11/M03 A2984 RMK A01 T01061029  RH  039%=      5-min Rain = 0
KBY1 210139Z 34003KT 11/M03 A2984 RMK A01 T01061029  RH  039%=      5-min Rain = 0
KBY1 210140Z 35003KT 11/M03 A2984 RMK A01 T01061029  RH  039%=      5-min Rain = 0
KBY1 210141Z 35004KT 11/M03 A2984 RMK A01 T01061030  RH  039%=      5-min Rain = 0
KBY1 210142Z 34003KT 11/M03 A2984 RMK A01 T01051031  RH  038%=      5-min Rain = 0
KBY1 210143Z 33004KT 11/M03 A2984 RMK A01 T01051028  RH  039%=      5-min Rain = 0
KBY1 210144Z 34005KT 10/M03 A2984 RMK A01 T01001026  RH  041%=      5-min Rain = 0
KBY1 210145Z 34004KT 10/M03 A2984 RMK A01 T00961028  RH  042%=      5-min Rain = 0
KBY1 210146Z 36003KT 09/M03 A2984 RMK A01 T00941030  RH  041%=      5-min Rain = 0
KBY1 210147Z 00004KT 10/M03 A2984 RMK A01 T00951030  RH  041%=      5-min Rain = 0
KBY1 210148Z 00004KT 10/M03 A2984 RMK A01 T00951029  RH  042%=      5-min Rain = 0
KBY1 210149Z 01003KT 09/M03 A2984 RMK A01 T00941031  RH  041%=      5-min Rain = 0
KBY1 210150Z 01003KT 09/M03 A2984 RMK A01 T00941032  RH  041%=      5-min Rain = 0
KBY1 210151Z 01003KT 09/M03 A2984 RMK A01 T00941031  RH  041%=      5-min Rain = 0
KBY1 210152Z 02002KT 09/M03 A2984 RMK A01 T00941033  RH  041%=      5-min Rain = 0
KBY1 210153Z 00002KT 09/M03 A2984 RMK A01 T00941034  RH  040%=      5-min Rain = 0
KBY1 210154Z 01002KT 09/M03 A2984 RMK A01 T00941034  RH  040%=      5-min Rain = 0
KBY1 210155Z 01001KT 09/M03 A2984 RMK A01 T00941029  RH  042%=      5-min Rain = 0
KBY1 210156Z 01001KT 09/M03 A2984 RMK A01 T00891028  RH  044%=      5-min Rain = 0
KBY1 210157Z 01001KT 09/M03 A2984 RMK A01 T00851028  RH  045%=      5-min Rain = 0
KBY1 210158Z 02000KT 08/M03 A2985 RMK A01 T00831029  RH  045%=      5-min Rain = 0
KBY1 210159Z 00000KT 08/M03 A2985 RMK A01 T00811030  RH  046%=      5-min Rain = 0
KBY1 210200Z 00000KT 08/M03 A2985 RMK A01 T00791030  RH  046%=      5-min Rain = 0
KBY1 210201Z 32000KT 08/M03 A2985 RMK A01 T00771031  RH  046%=      5-min Rain = 0
KBY1 210202Z 31000KT 08/M03 A2985 RMK A01 T00771031  RH  046%=      5-min Rain = 0
KBY1 210203Z 00000KT 08/M03 A2985 RMK A01 T00751028  RH  048%=      5-min Rain = 0
KBY1 210204Z 24001KT 07/M03 A2985 RMK A01 T00711029  RH  049%=      5-min Rain = 0
KBY1 210205Z 24001KT 07/M03 A2985 RMK A01 T00691030  RH  049%=      5-min Rain = 0
KBY1 210206Z 20000KT 07/M03 A2985 RMK A01 T00691032  RH  049%=      5-min Rain = 0
KBY1 210207Z 22001KT 07/M03 A2985 RMK A01 T00681032  RH  049%=      5-min Rain = 0
KBY1 210208Z 23001KT 07/M03 A2985 RMK A01 T00691034  RH  048%=      5-min Rain = 0
KBY1 210209Z 22001KT 07/M04 A2985 RMK A01 T00711035  RH  047%=      5-min Rain = 0
KBY1 210210Z 22001KT 07/M04 A2985 RMK A01 T00741035  RH  046%=      5-min Rain = 0
KBY1 210211Z 00000KT 07/M03 A2985 RMK A01 T00731031  RH  047%=      5-min Rain = 0
KBY1 210212Z 30000KT 07/M03 A2985 RMK A01 T00701034  RH  047%=      5-min Rain = 0
KBY1 210213Z 34001KT 07/M03 A2986 RMK A01 T00691029  RH  050%=      5-min Rain = 0
KBY1 210214Z 35002KT 07/M03 A2986 RMK A01 T00671027  RH  051%=      5-min Rain = 0
KBY1 210215Z 36001KT 06/M03 A2986 RMK A01 T00641028  RH  052%=      5-min Rain = 0
KBY1 210216Z 35001KT 06/M03 A2986 RMK A01 T00631031  RH  051%=      5-min Rain = 0
KBY1 210217Z 34001KT 06/M03 A2986 RMK A01 T00631034  RH  050%=      5-min Rain = 0
KBY1 210218Z 33002KT 06/M04 A2986 RMK A01 T00631036  RH  049%=      5-min Rain = 0
KBY1 210219Z 32003KT 07/M04 A2986 RMK A01 T00661035  RH  048%=      5-min Rain = 0
KBY1 210220Z 32003KT 07/M03 A2986 RMK A01 T00681034  RH  048%=      5-min Rain = 0
KBY1 210221Z 32004KT 07/M03 A2986 RMK A01 T00691034  RH  048%=      5-min Rain = 0
KBY1 210222Z 31004KT 07/M03 A2986 RMK A01 T00681034  RH  048%=      5-min Rain = 0
KBY1 210223Z 30003KT 07/M04 A2986 RMK A01 T00691036  RH  047%=      5-min Rain = 0
KBY1 210224Z 29003KT 07/M04 A2986 RMK A01 T00711038  RH  046%=      5-min Rain = 0
KBY1 210225Z 27003KT 08/M04 A2986 RMK A01 T00751037  RH  045%=      5-min Rain = 0
KBY1 210226Z 27003KT 08/M04 A2986 RMK A01 T00761037  RH  045%=      5-min Rain = 0
KBY1 210227Z 26004KT 08/M04 A2986 RMK A01 T00761036  RH  045%=      5-min Rain = 0
KBY1 210228Z 27003KT 07/M03 A2986 RMK A01 T00741034  RH  046%=      5-min Rain = 0
KBY1 210229Z 27002KT 07/M03 A2986 RMK A01 T00701034  RH  048%=      5-min Rain = 0
KBY1 210230Z 29002KT 07/M04 A2986 RMK A01 T00651035  RH  049%=      5-min Rain = 0
KBY1 210231Z 29002KT 06/M03 A2986 RMK A01 T00631034  RH  050%=      5-min Rain = 0
KBY1 210232Z 28002KT 06/M03 A2986 RMK A01 T00601033  RH  051%=      5-min Rain = 0
KBY1 210233Z 27003KT 06/M03 A2986 RMK A01 T00581032  RH  052%=      5-min Rain = 0
KBY1 210234Z 27003KT 06/M03 A2986 RMK A01 T00571032  RH  053%=      5-min Rain = 0
KBY1 210235Z 26003KT 06/M03 A2986 RMK A01 T00561033  RH  053%=      5-min Rain = 0
KBY1 210236Z 27002KT 06/M03 A2986 RMK A01 T00561033  RH  053%=      5-min Rain = 0
KBY1 210237Z 27003KT 06/M03 A2986 RMK A01 T00561033  RH  053%=      5-min Rain = 0
KBY1 210238Z 28003KT 06/M03 A2987 RMK A01 T00561034  RH  052%=      5-min Rain = 0
KBY1 210239Z 29005KT 06/M03 A2987 RMK A01 T00561034  RH  052%=      5-min Rain = 0
KBY1 210240Z 29005KT 06/M04 A2987 RMK A01 T00561036  RH  051%=      5-min Rain = 0
KBY1 210241Z 29006KT 06/M04 A2987 RMK A01 T00591037  RH  050%=      5-min Rain = 0
KBY1 210242Z 30006KT 06/M04 A2987 RMK A01 T00611037  RH  049%=      5-min Rain = 0
KBY1 210243Z 30005KT 06/M04 A2987 RMK A01 T00641037  RH  048%=      5-min Rain = 0
KBY1 210244Z 30005KT 07/M04 A2987 RMK A01 T00651038  RH  048%=      5-min Rain = 0
KBY1 210245Z 30005KT 07/M04 A2987 RMK A01 T00651037  RH  048%=      5-min Rain = 0
KBY1 210246Z 30005KT 06/M04 A2987 RMK A01 T00631036  RH  049%=      5-min Rain = 0
KBY1 210247Z 30005KT 06/M04 A2987 RMK A01 T00611037  RH  049%=      5-min Rain = 0
KBY1 210248Z 30005KT 06/M04 A2987 RMK A01 T00601035  RH  051%=      5-min Rain = 0
KBY1 210249Z 31005KT 06/M03 A2987 RMK A01 T00581034  RH  052%=      5-min Rain = 0
KBY1 210250Z 31004KT 06/M03 A2987 RMK A01 T00551034  RH  053%=      5-min Rain = 0
KBY1 210251Z 32005KT 05/M03 A2987 RMK A01 T00531034  RH  053%=      5-min Rain = 0
KBY1 210252Z 32005KT 05/M03 A2987 RMK A01 T00521033  RH  054%=      5-min Rain = 0
KBY1 210253Z 32006KT 05/M03 A2987 RMK A01 T00511033  RH  054%=      5-min Rain = 0
KBY1 210254Z 32006KT 05/M03 A2987 RMK A01 T00511034  RH  054%=      5-min Rain = 0
KBY1 210255Z 32005KT 05/M04 A2987 RMK A01 T00501035  RH  054%=      5-min Rain = 0
KBY1 210256Z 33005KT 05/M03 A2987 RMK A01 T00511034  RH  054%=      5-min Rain = 0
KBY1 210257Z 33005KT 05/M04 A2987 RMK A01 T00511035  RH  054%=      5-min Rain = 0
KBY1 210258Z 32005KT 05/M04 A2987 RMK A01 T00531036  RH  053%=      5-min Rain = 0
KBY1 210259Z 33004KT 05/M04 A2987 RMK A01 T00531036  RH  053%=      5-min Rain = 0
KBY1 210300Z 32004KT 05/M04 A2987 RMK A01 T00531036  RH  053%=      5-min Rain = 0
KBY1 210301Z 30004KT 05/M04 A2987 RMK A01 T00531037  RH  052%=      5-min Rain = 0
KBY1 210302Z 29003KT 05/M04 A2987 RMK A01 T00541039  RH  051%=      5-min Rain = 0
KBY1 210303Z 21003KT 06/M04 A2987 RMK A01 T00551039  RH  051%=      5-min Rain = 0
KBY1 210304Z 20003KT 05/M04 A2987 RMK A01 T00511040  RH  052%=      5-min Rain = 0
KBY1 210305Z 21002KT 05/M04 A2987 RMK A01 T00471038  RH  054%=      5-min Rain = 0
KBY1 210306Z 20002KT 05/M04 A2988 RMK A01 T00451037  RH  055%=      5-min Rain = 0
KBY1 210307Z 20002KT 04/M04 A2988 RMK A01 T00431035  RH  057%=      5-min Rain = 0
KBY1 210308Z 21001KT 04/M03 A2988 RMK A01 T00421033  RH  058%=      5-min Rain = 0
KBY1 210309Z 21001KT 04/M03 A2988 RMK A01 T00411032  RH  059%=      5-min Rain = 0
KBY1 210310Z 00000KT 04/M03 A2988 RMK A01 T00401032  RH  059%=      5-min Rain = 0
KBY1 210311Z 00000KT 04/M03 A2987 RMK A01 T00401032  RH  060%=      5-min Rain = 0
KBY1 210312Z 00000KT 04/M03 A2987 RMK A01 T00391031  RH  060%=      5-min Rain = 0
KBY1 210313Z 00000KT 04/M03 A2987 RMK A01 T00381031  RH  060%=      5-min Rain = 0
KBY1 210314Z 00000KT 04/M03 A2987 RMK A01 T00371032  RH  060%=      5-min Rain = 0
KBY1 210315Z 00001KT 04/M03 A2987 RMK A01 T00371033  RH  060%=      5-min Rain = 0
KBY1 210316Z 00001KT 04/M03 A2987 RMK A01 T00371033  RH  060%=      5-min Rain = 0
KBY1 210317Z 00001KT 04/M03 A2987 RMK A01 T00361032  RH  061%=      5-min Rain = 0
KBY1 210318Z 32002KT 04/M03 A2988 RMK A01 T00351031  RH  062%=      5-min Rain = 0
KBY1 210319Z 26001KT 03/M03 A2988 RMK A01 T00331032  RH  063%=      5-min Rain = 0
KBY1 210320Z 33000KT 03/M03 A2988 RMK A01 T00321034  RH  062%=      5-min Rain = 0
KBY1 210321Z 28000KT 03/M03 A2988 RMK A01 T00311034  RH  062%=      5-min Rain = 0
KBY1 210322Z 29001KT 03/M03 A2988 RMK A01 T00311034  RH  063%=      5-min Rain = 0
KBY1 210323Z 28003KT 03/M03 A2988 RMK A01 T00311032  RH  063%=      5-min Rain = 0
KBY1 210324Z 27002KT 03/M03 A2988 RMK A01 T00321032  RH  063%=      5-min Rain = 0
KBY1 210325Z 28002KT 03/M03 A2988 RMK A01 T00341032  RH  062%=      5-min Rain = 0
KBY1 210326Z 29003KT 04/M03 A2988 RMK A01 T00351033  RH  061%=      5-min Rain = 0
KBY1 210327Z 29003KT 04/M03 A2988 RMK A01 T00361033  RH  061%=      5-min Rain = 0
KBY1 210328Z 29002KT 04/M04 A2988 RMK A01 T00371035  RH  059%=      5-min Rain = 0
KBY1 210329Z 28003KT 04/M04 A2988 RMK A01 T00371036  RH  059%=      5-min Rain = 0
KBY1 210330Z 29003KT 04/M03 A2988 RMK A01 T00371032  RH  060%=      5-min Rain = 0
KBY1 210331Z 30003KT 04/M03 A2988 RMK A01 T00351032  RH  061%=      5-min Rain = 0
KBY1 210332Z 30004KT 03/M03 A2988 RMK A01 T00331034  RH  062%=      5-min Rain = 0
KBY1 210333Z 31004KT 03/M03 A2988 RMK A01 T00311034  RH  062%=      5-min Rain = 0
KBY1 210334Z 30004KT 03/M04 A2988 RMK A01 T00291035  RH  063%=      5-min Rain = 0
KBY1 210335Z 32003KT 03/M04 A2988 RMK A01 T00291036  RH  063%=      5-min Rain = 0
KBY1 210336Z 34003KT 03/M04 A2988 RMK A01 T00271035  RH  064%=      5-min Rain = 0
KBY1 210337Z 32004KT 02/M03 A2988 RMK A01 T00241034  RH  065%=      5-min Rain = 0
KBY1 210338Z 33002KT 02/M03 A2988 RMK A01 T00241034  RH  066%=      5-min Rain = 0
KBY1 210339Z 35001KT 02/M03 A2988 RMK A01 T00241033  RH  066%=      5-min Rain = 0
KBY1 210340Z 03000KT 03/M03 A2988 RMK A01 T00251033  RH  066%=      5-min Rain = 0
KBY1 210341Z 08000KT 03/M03 A2988 RMK A01 T00251032  RH  066%=      5-min Rain = 0
KBY1 210342Z 30000KT 03/M03 A2988 RMK A01 T00251033  RH  065%=      5-min Rain = 0
KBY1 210343Z 28003KT 03/M03 A2988 RMK A01 T00261034  RH  065%=      5-min Rain = 0
KBY1 210344Z 29004KT 03/M04 A2988 RMK A01 T00301039  RH  060%=      5-min Rain = 0
KBY1 210345Z 29005KT 04/M05 A2988 RMK A01 T00381052  RH  052%=      5-min Rain = 0
KBY1 210346Z 29005KT 05/M06 A2988 RMK A01 T00481058  RH  046%=      5-min Rain = 0
KBY1 210347Z 28006KT 06/M06 A2988 RMK A01 T00571062  RH  042%=      5-min Rain = 0
KBY1 210348Z 28005KT 07/M06 A2988 RMK A01 T00651064  RH  039%=      5-min Rain = 0
KBY1 210349Z 29005KT 07/M07 A2989 RMK A01 T00721065  RH  037%=      5-min Rain = 0
KBY1 210350Z 29006KT 07/M07 A2988 RMK A01 T00741066  RH  036%=      5-min Rain = 0
KBY1 210351Z 29005KT 08/M07 A2989 RMK A01 T00751065  RH  036%=      5-min Rain = 0
KBY1 210352Z 29005KT 08/M07 A2989 RMK A01 T00751065  RH  036%=      5-min Rain = 0
KBY1 210353Z 29004KT 08/M06 A2989 RMK A01 T00751063  RH  037%=      5-min Rain = 0
KBY1 210354Z 28006KT 07/M06 A2989 RMK A01 T00741063  RH  037%=      5-min Rain = 0
KBY1 210355Z 28006KT 07/M06 A2989 RMK A01 T00741062  RH  037%=      5-min Rain = 0
KBY1 210356Z 27007KT 07/M06 A2989 RMK A01 T00741062  RH  038%=      5-min Rain = 0
KBY1 210357Z 30006KT 08/M06 A2989 RMK A01 T00751060  RH  038%=      5-min Rain = 0
KBY1 210358Z 28006KT 07/M06 A2989 RMK A01 T00731059  RH  038%=      5-min Rain = 0
KBY1 210359Z 27007KT 07/M06 A2989 RMK A01 T00721059  RH  039%=      5-min Rain = 0
KBY1 210400Z 28007KT 07/M06 A2989 RMK A01 T00741062  RH  037%=      5-min Rain = 0
KBY1 210401Z 29006KT 08/M06 A2989 RMK A01 T00771062  RH  037%=      5-min Rain = 0
KBY1 210402Z 29007KT 08/M06 A2989 RMK A01 T00771059  RH  037%=      5-min Rain = 0
KBY1 210403Z 29006KT 08/M06 A2989 RMK A01 T00751060  RH  038%=      5-min Rain = 0
KBY1 210404Z 27007KT 08/M06 A2989 RMK A01 T00751060  RH  038%=      5-min Rain = 0
KBY1 210405Z 28008KT 08/M06 A2989 RMK A01 T00761059  RH  038%=      5-min Rain = 0
KBY1 210406Z 28008KT 08/M06 A2989 RMK A01 T00771058  RH  038%=      5-min Rain = 0
KBY1 210407Z 28008KT 08/M06 A2989 RMK A01 T00761058  RH  038%=      5-min Rain = 0
KBY1 210408Z 27008KT 08/M06 A2989 RMK A01 T00761058  RH  038%=      5-min Rain = 0
KBY1 210409Z 28008KT 08/M06 A2989 RMK A01 T00761059  RH  038%=      5-min Rain = 0
KBY1 210410Z 28007KT 08/M06 A2989 RMK A01 T00751059  RH  038%=      5-min Rain = 0
KBY1 210411Z 28007KT 07/M06 A2989 RMK A01 T00741060  RH  038%=      5-min Rain = 0
KBY1 210412Z 27007KT 07/M06 A2989 RMK A01 T00741062  RH  038%=      5-min Rain = 0
KBY1 210413Z 28007KT 07/M07 A2989 RMK A01 T00741065  RH  037%=      5-min Rain = 0
KBY1 210414Z 28007KT 07/M06 A2989 RMK A01 T00741063  RH  037%=      5-min Rain = 0
KBY1 210415Z 28007KT 07/M06 A2989 RMK A01 T00731062  RH  038%=      5-min Rain = 0
KBY1 210416Z 27008KT 07/M07 A2989 RMK A01 T00721065  RH  037%=      5-min Rain = 0
KBY1 210417Z 28008KT 07/M07 A2989 RMK A01 T00721065  RH  037%=      5-min Rain = 0
KBY1 210418Z 28008KT 07/M06 A2989 RMK A01 T00711061  RH  038%=      5-min Rain = 0
KBY1 210419Z 27009KT 07/M06 A299 RMK A01 T00711058  RH  039%=      5-min Rain = 0
KBY1 210420Z 28009KT 07/M06 A299 RMK A01 T00701057  RH  040%=      5-min Rain = 0
KBY1 210421Z 27008KT 07/M06 A299 RMK A01 T00701057  RH  040%=      5-min Rain = 0
KBY1 210422Z 27009KT 07/M06 A299 RMK A01 T00701057  RH  040%=      5-min Rain = 0
KBY1 210423Z 27008KT 07/M06 A299 RMK A01 T00701057  RH  040%=      5-min Rain = 0
KBY1 210424Z 28008KT 07/M06 A299 RMK A01 T00691059  RH  040%=      5-min Rain = 0
KBY1 210425Z 28007KT 07/M06 A299 RMK A01 T00691063  RH  038%=      5-min Rain = 0
KBY1 210426Z 28008KT 07/M06 A299 RMK A01 T00701063  RH  038%=      5-min Rain = 0
KBY1 210427Z 28006KT 07/M06 A299 RMK A01 T00701063  RH  038%=      5-min Rain = 0
KBY1 210428Z 28006KT 07/M06 A299 RMK A01 T00681061  RH  039%=      5-min Rain = 0
KBY1 210429Z 27007KT 07/M06 A299 RMK A01 T00651062  RH  040%=      5-min Rain = 0
KBY1 210430Z 28008KT 06/M06 A299 RMK A01 T00641061  RH  040%=      5-min Rain = 0
KBY1 210431Z 29009KT 06/M06 A299 RMK A01 T00641061  RH  041%=      5-min Rain = 0
KBY1 210432Z 28008KT 06/M06 A299 RMK A01 T00641062  RH  040%=      5-min Rain = 0
KBY1 210433Z 28008KT 06/M06 A299 RMK A01 T00641063  RH  040%=      5-min Rain = 0
KBY1 210434Z 28007KT 07/M06 A299 RMK A01 T00651064  RH  039%=      5-min Rain = 0
KBY1 210435Z 28007KT 07/M07 A299 RMK A01 T00651066  RH  039%=      5-min Rain = 0
KBY1 210436Z 28007KT 07/M07 A299 RMK A01 T00651066  RH  039%=      5-min Rain = 0
KBY1 210437Z 28008KT 07/M07 A299 RMK A01 T00651066  RH  039%=      5-min Rain = 0
KBY1 210438Z 28008KT 07/M07 A299 RMK A01 T00661066  RH  038%=      5-min Rain = 0
KBY1 210439Z 28006KT 07/M07 A299 RMK A01 T00661066  RH  038%=      5-min Rain = 0
KBY1 210440Z 29007KT 07/M07 A299 RMK A01 T00661066  RH  038%=      5-min Rain = 0
KBY1 210441Z 28007KT 07/M07 A299 RMK A01 T00651065  RH  039%=      5-min Rain = 0
KBY1 210442Z 28007KT 07/M07 A299 RMK A01 T00651065  RH  039%=      5-min Rain = 0
KBY1 210443Z 29007KT 07/M07 A299 RMK A01 T00651065  RH  039%=      5-min Rain = 0
KBY1 210444Z 29006KT 06/M07 A299 RMK A01 T00641065  RH  039%=      5-min Rain = 0
KBY1 210445Z 29007KT 06/M07 A299 RMK A01 T00641065  RH  039%=      5-min Rain = 0
KBY1 210446Z 29007KT 06/M07 A299 RMK A01 T00641066  RH  039%=      5-min Rain = 0
KBY1 210447Z 29007KT 06/M07 A299 RMK A01 T00631066  RH  039%=      5-min Rain = 0
KBY1 210448Z 29007KT 06/M07 A299 RMK A01 T00611067  RH  039%=      5-min Rain = 0
KBY1 210449Z 29007KT 06/M07 A299 RMK A01 T00611069  RH  039%=      5-min Rain = 0
KBY1 210450Z 29009KT 06/M07 A299 RMK A01 T00611069  RH  039%=      5-min Rain = 0
KBY1 210451Z 29007KT 06/M07 A299 RMK A01 T00621069  RH  039%=      5-min Rain = 0
KBY1 210452Z 29008KT 06/M07 A299 RMK A01 T00621068  RH  039%=      5-min Rain = 0
KBY1 210453Z 29007KT 06/M07 A299 RMK A01 T00611067  RH  039%=      5-min Rain = 0
KBY1 210454Z 29007KT 06/M07 A299 RMK A01 T00611066  RH  040%=      5-min Rain = 0
KBY1 210455Z 29008KT 06/M07 A299 RMK A01 T00611065  RH  040%=      5-min Rain = 0
KBY1 210456Z 29007KT 06/M06 A299 RMK A01 T00601064  RH  040%=      5-min Rain = 0
KBY1 210457Z 29006KT 06/M06 A299 RMK A01 T00611063  RH  041%=      5-min Rain = 0
KBY1 210458Z 29007KT 06/M06 A299 RMK A01 T00601063  RH  041%=      5-min Rain = 0
KBY1 210459Z 28006KT 06/M06 A299 RMK A01 T00601062  RH  041%=      5-min Rain = 0

Page generated in 0.2358 seconds.